M I D A S
Marine Information and Data Acquisition System
Tripno 1102 of the Zeeleeuw from 2006-05-10 06:48:14 to 2006-05-10 14:04:03
Back to CruiseResearch ActivitiesStationsMapUnderway DataData graphs

EquipmentUnitsComment
TimeDGPSUTC
LatitudeDGPSDM.mWGS84
LongitudeDGPSDM.mWGS84
TemperatureSBE03/SBE38deg celciusITS90
ConductivitySBE21S/mITS90
SalinitySBE21 Practical Salinity Units
ChlorophylAChelsea fluorimeterg/lCalibrated in Aceton
Missing or incorrect values are displayed as -999
Sea surface data collected by the RV Zeeleeuw from 2006-05-10 06:44:12 to 2006-05-10 14:21:31
                                                                                    Next 1000 lines
Time Latitude Longitude Temperature Conductivity Salinity ChlorophylA
2006-05-10 06:44:22 51°13.601 2°56.093 19.6804 0.005812 0.035261 43.580324
2006-05-10 06:44:26 51°13.601 2°56.091 19.7017 0.005812 0.035261 43.580324
2006-05-10 06:44:32 51°13.602 2°56.087 19.6637 0.005812 0.035261 43.546614
2006-05-10 06:44:37 51°13.603 2°56.082 19.6914 0.005812 0.035261 43.580324
2006-05-10 06:44:42 51°13.604 2°56.078 19.67 0.005812 0.035261 43.580324
2006-05-10 06:44:46 51°13.605 2°56.074 19.6599 0.005812 0.035261 43.512905
2006-05-10 06:44:52 51°13.606 2°56.067 19.6354 0.005812 0.035261 43.546614
2006-05-10 06:44:57 51°13.608 2°56.061 19.6846 0.005812 0.035261 43.546614
2006-05-10 06:45:02 51°13.609 2°56.054 19.6701 0.005812 0.035261 43.546614
2006-05-10 06:45:07 51°13.611 2°56.047 19.6671 0.005812 0.035261 43.512905
2006-05-10 06:45:12 51°13.613 2°56.039 19.6723 0.005812 0.035261 43.512905
2006-05-10 06:45:17 51°13.614 2°56.031 19.7088 0.005812 0.035261 43.512905
2006-05-10 06:45:22 51°13.616 2°56.022 19.6884 0.005812 0.035261 43.512905
2006-05-10 06:45:26 51°13.618 2°56.015 19.6959 0.005812 0.035261 43.546614
2006-05-10 06:45:32 51°13.62 2°56.004 19.7347 0.005812 0.03526 43.512905
2006-05-10 06:45:37 51°13.621 2°55.996 19.7065 0.005812 0.03526 43.546614
2006-05-10 06:45:42 51°13.623 2°55.987 19.6855 0.005812 0.03526 43.546614
2006-05-10 06:45:47 51°13.626 2°55.978 19.7349 0.005812 0.03526 43.512905
2006-05-10 06:45:52 51°13.628 2°55.969 19.6994 0.005812 0.03526 43.546614
2006-05-10 06:45:57 51°13.63 2°55.959 19.689 0.005812 0.03526 43.512905
2006-05-10 06:46:02 51°13.633 2°55.95 19.6994 0.005812 0.03526 43.512905
2006-05-10 06:46:06 51°13.635 2°55.943 19.7344 0.005812 0.03526 43.512905
2006-05-10 06:46:12 51°13.639 2°55.931 19.7328 0.005812 0.03526 43.512905
2006-05-10 06:46:17 51°13.642 2°55.922 19.7304 0.005812 0.03526 43.546614
2006-05-10 06:46:22 51°13.646 2°55.913 19.7353 0.005812 0.03526 43.512905
2006-05-10 06:46:27 51°13.649 2°55.903 19.7062 0.005812 0.03526 43.512905
2006-05-10 06:46:32 51°13.653 2°55.894 19.7059 0.005812 0.035259 43.546614
2006-05-10 06:46:37 51°13.657 2°55.885 19.7027 0.005812 0.035259 43.546614
2006-05-10 06:46:42 51°13.66 2°55.875 19.7062 0.005812 0.035259 43.546614
2006-05-10 06:46:47 51°13.665 2°55.866 19.7032 0.005812 0.035259 43.512905
2006-05-10 06:46:53 51°13.669 2°55.855 19.7005 0.005812 0.035259 43.512905
2006-05-10 06:46:57 51°13.672 2°55.848 19.6987 0.005812 0.035259 43.512905
2006-05-10 06:47:02 51°13.677 2°55.838 19.7008 0.005812 0.035259 43.546614
2006-05-10 06:47:07 51°13.681 2°55.828 19.7137 0.005812 0.035259 43.512905
2006-05-10 06:47:13 51°13.685 2°55.817 19.7137 0.005812 0.035259 43.512905
2006-05-10 06:47:17 51°13.688 2°55.81 19.7089 0.005812 0.035259 43.512905
2006-05-10 06:47:22 51°13.692 2°55.801 19.7056 0.005812 0.035259 43.546614
2006-05-10 06:47:26 51°13.694 2°55.794 19.7034 0.005812 0.035259 43.512905
2006-05-10 06:47:31 51°13.698 2°55.785 19.7093 0.005812 0.035259 43.512905
2006-05-10 06:47:37 51°13.701 2°55.775 19.7117 0.005812 0.035258 43.512905
2006-05-10 06:47:42 51°13.704 2°55.767 19.7057 0.005812 0.035258 43.512905
2006-05-10 06:47:47 51°13.706 2°55.759 19.707 0.005812 0.035258 43.512905
2006-05-10 06:47:52 51°13.708 2°55.752 19.6966 0.005812 0.035258 43.512905
2006-05-10 06:47:57 51°13.71 2°55.745 19.6926 0.005812 0.035258 43.512905
2006-05-10 06:48:02 51°13.711 2°55.738 19.6484 0.005812 0.035258 43.546614
2006-05-10 06:48:07 51°13.712 2°55.733 19.6966 0.005812 0.035258 43.512905
2006-05-10 06:48:12 51°13.713 2°55.728 19.7217 0.005812 0.035258 43.512905
2006-05-10 06:48:17 51°13.714 2°55.724 19.7639 0.005812 0.035258 43.512905
2006-05-10 06:48:22 51°13.715 2°55.722 19.7955 0.005812 0.035258 43.512905
2006-05-10 06:48:26 51°13.715 2°55.721 19.8059 0.005812 0.035258 43.512905
2006-05-10 06:48:32 51°13.716 2°55.721 19.803 0.005812 0.035257 43.512905
2006-05-10 06:48:37 51°13.716 2°55.722 19.7989 0.005812 0.035257 43.512905
2006-05-10 06:48:42 51°13.717 2°55.724 19.8101 0.005812 0.035257 43.512905
2006-05-10 06:48:46 51°13.719 2°55.726 19.7823 0.005812 0.035257 43.512905
2006-05-10 06:48:52 51°13.72 2°55.729 19.7463 0.005812 0.035257 43.479195
2006-05-10 06:48:57 51°13.722 2°55.732 19.7436 0.005812 0.035257 43.512905
2006-05-10 06:49:02 51°13.723 2°55.734 19.7167 0.005812 0.035257 43.512905
2006-05-10 06:49:06 51°13.724 2°55.735 19.697 0.005812 0.035257 43.479195
2006-05-10 06:49:12 51°13.725 2°55.737 19.6446 0.005812 0.035257 43.479195
2006-05-10 06:49:17 51°13.726 2°55.738 19.6535 0.005812 0.035257 43.512905
2006-05-10 06:49:22 51°13.726 2°55.738 19.6468 0.005812 0.035257 43.512905
2006-05-10 06:49:26 51°13.726 2°55.738 19.7244 0.005812 0.035257 43.479195
2006-05-10 06:49:31 51°13.725 2°55.737 19.6941 0.005812 0.035257 43.479195
2006-05-10 06:49:37 51°13.724 2°55.735 19.7024 0.005812 0.035257 43.512905
2006-05-10 06:49:42 51°13.722 2°55.734 19.7774 0.005812 0.035257 43.512905
2006-05-10 06:49:47 51°13.72 2°55.732 19.7616 0.005812 0.035257 43.479195
2006-05-10 06:49:52 51°13.719 2°55.73 19.743 0.005812 0.035257 43.512905
2006-05-10 06:49:57 51°13.717 2°55.728 19.7303 0.005812 0.035256 43.512905
2006-05-10 06:50:02 51°13.715 2°55.726 19.7268 0.005812 0.035256 43.512905
2006-05-10 06:50:07 51°13.714 2°55.724 19.7242 0.005812 0.035256 43.512905
2006-05-10 06:50:12 51°13.713 2°55.723 19.736 0.005812 0.035256 43.512905
2006-05-10 06:50:17 51°13.712 2°55.722 19.754 0.005812 0.035256 43.512905
2006-05-10 06:50:22 51°13.712 2°55.722 19.7659 0.005812 0.035256 43.512905
2006-05-10 06:50:26 51°13.712 2°55.722 19.7711 0.005812 0.035256 43.479195
2006-05-10 06:50:32 51°13.713 2°55.722 19.7827 0.005812 0.035255 43.479195
2006-05-10 06:50:37 51°13.714 2°55.722 19.7936 0.005812 0.035255 43.512905
2006-05-10 06:50:42 51°13.716 2°55.722 19.8224 0.005812 0.035255 43.512905
2006-05-10 06:50:47 51°13.719 2°55.722 19.8204 0.005812 0.035255 43.479195
2006-05-10 06:50:52 51°13.723 2°55.721 19.8198 0.005812 0.035255 43.479195
2006-05-10 06:50:57 51°13.728 2°55.719 19.8185 0.005812 0.035255 43.479195
2006-05-10 06:51:02 51°13.733 2°55.717 19.823 0.005812 0.035255 43.479195
2006-05-10 06:51:06 51°13.737 2°55.714 19.8028 0.005812 0.035254 43.479195
2006-05-10 06:51:12 51°13.744 2°55.709 19.7471 0.005812 0.035254 43.479195
2006-05-10 06:51:17 51°13.75 2°55.704 19.7542 0.005812 0.035254 43.512905
2006-05-10 06:51:22 51°13.757 2°55.699 19.6948 0.005812 0.035254 43.512905
2006-05-10 06:51:27 51°13.765 2°55.693 19.7006 0.005812 0.035254 43.479195
2006-05-10 06:51:32 51°13.772 2°55.687 19.6526 0.005812 0.035254 43.479195
2006-05-10 06:51:37 51°13.78 2°55.681 19.6276 0.005812 0.035254 43.512905
2006-05-10 06:51:42 51°13.788 2°55.675 19.6302 0.005812 0.035254 43.512905
2006-05-10 06:51:47 51°13.797 2°55.668 19.6312 0.005812 0.035254 43.479195
2006-05-10 06:51:52 51°13.805 2°55.661 19.6254 0.005812 0.035254 43.479195
2006-05-10 06:51:57 51°13.814 2°55.655 19.6386 0.005812 0.035253 43.512905
2006-05-10 06:52:02 51°13.823 2°55.647 19.6385 0.005812 0.035253 43.479195
2006-05-10 06:52:06 51°13.83 2°55.641 19.6435 0.005812 0.035253 43.512905
2006-05-10 06:52:12 51°13.842 2°55.632 19.6424 0.005812 0.035253 43.512905
2006-05-10 06:52:17 51°13.852 2°55.624 19.6426 0.005812 0.035253 43.479195
2006-05-10 06:52:22 51°13.862 2°55.616 19.6295 0.005812 0.035253 43.512905
2006-05-10 06:52:28 51°13.874 2°55.606 19.6133 0.005812 0.035253 43.479195
2006-05-10 06:52:32 51°13.883 2°55.599 19.6042 0.005812 0.035253 43.479195
2006-05-10 06:52:37 51°13.893 2°55.591 19.6201 0.005812 0.035253 43.479195
2006-05-10 06:52:42 51°13.904 2°55.582 19.6014 0.005812 0.035253 43.479195
2006-05-10 06:52:46 51°13.913 2°55.575 19.5721 0.005812 0.035252 43.479195
2006-05-10 06:52:51 51°13.924 2°55.567 19.6183 0.005812 0.035252 43.479195
2006-05-10 06:52:56 51°13.935 2°55.559 19.62 0.005812 0.035252 43.445486
2006-05-10 06:53:02 51°13.949 2°55.549 19.6067 0.005812 0.035252 43.479195
2006-05-10 06:53:07 51°13.961 2°55.54 19.6316 0.005812 0.035252 43.445486
2006-05-10 06:53:12 51°13.972 2°55.532 19.6464 0.005812 0.035252 43.445486
2006-05-10 06:53:17 51°13.984 2°55.524 19.6536 0.005812 0.035252 43.479195
2006-05-10 06:53:22 51°13.996 2°55.515 19.6255 0.005812 0.035252 43.479195
2006-05-10 06:53:26 51°14.005 2°55.508 19.6258 0.005812 0.035252 43.479195
2006-05-10 06:53:32 51°14.019 2°55.498 19.6472 0.005812 0.035252 43.479195
2006-05-10 06:53:37 51°14.03 2°55.489 19.6534 0.005812 0.035252 43.445486
2006-05-10 06:53:42 51°14.041 2°55.481 19.6583 0.005812 0.035252 43.445486
2006-05-10 06:53:45 51°14.048 2°55.475 19.6641 0.005812 0.035252 43.479195
2006-05-10 06:53:52 51°14.064 2°55.463 19.6668 0.005812 0.035251 43.479195
2006-05-10 06:53:57 51°14.076 2°55.454 19.6461 0.005812 0.035251 43.479195
2006-05-10 06:54:02 51°14.088 2°55.445 19.6701 0.005812 0.035251 43.479195
2006-05-10 06:54:07 51°14.1 2°55.436 19.6726 0.005812 0.035251 43.445486
2006-05-10 06:54:12 51°14.112 2°55.427 19.7001 0.005812 0.035251 43.445486
2006-05-10 06:54:17 51°14.123 2°55.418 19.7072 0.005812 0.035251 43.479195
2006-05-10 06:54:22 51°14.134 2°55.408 19.7583 0.005812 0.035251 43.479195
2006-05-10 06:54:26 51°14.143 2°55.4 19.7052 0.005812 0.035251 43.445486
2006-05-10 06:54:31 51°14.154 2°55.389 19.7103 0.005812 0.035251 43.479195
2006-05-10 06:54:37 51°14.167 2°55.377 19.7311 0.005812 0.035251 43.445486
2006-05-10 06:54:42 51°14.178 2°55.367 19.7692 0.005812 0.035251 43.445486
2006-05-10 06:54:46 51°14.187 2°55.358 19.8243 0.005812 0.035251 43.479195
2006-05-10 06:54:52 51°14.201 2°55.345 19.7139 0.005812 0.03525 43.479195
2006-05-10 06:54:56 51°14.209 2°55.335 19.8054 0.005812 0.035251 43.411777
2006-05-10 06:55:02 51°14.221 2°55.32 19.7851 0.005812 0.035251 43.411777
2006-05-10 06:55:06 51°14.229 2°55.31 19.8029 0.005812 0.03525 43.445486
2006-05-10 06:55:13 51°14.243 2°55.29 19.813 0.005812 0.03525 43.445486
2006-05-10 06:55:17 51°14.25 2°55.279 19.8029 0.005812 0.03525 43.445486
2006-05-10 06:55:22 51°14.258 2°55.263 19.7648 0.005812 0.03525 43.411777
2006-05-10 06:55:26 51°14.265 2°55.251 19.6905 0.005812 0.03525 43.445486
2006-05-10 06:55:32 51°14.275 2°55.233 19.7003 0.005812 0.03525 43.445486
2006-05-10 06:55:37 51°14.283 2°55.217 19.6575 0.005812 0.03525 43.411777
2006-05-10 06:55:42 51°14.292 2°55.202 19.7095 0.005812 0.03525 43.411777
2006-05-10 06:55:46 51°14.299 2°55.189 19.6738 0.005812 0.03525 43.445486
2006-05-10 06:55:52 51°14.309 2°55.171 19.7024 0.005812 0.03525 43.445486
2006-05-10 06:55:56 51°14.315 2°55.158 19.7054 0.005812 0.035249 43.411777
2006-05-10 06:56:02 51°14.325 2°55.139 19.7007 0.005812 0.035249 43.411777
2006-05-10 06:56:07 51°14.334 2°55.123 19.6947 0.005812 0.035249 43.445486
2006-05-10 06:56:12 51°14.343 2°55.107 19.6973 0.005812 0.035249 43.445486
2006-05-10 06:56:17 51°14.352 2°55.091 19.7159 0.005812 0.035249 43.411777
2006-05-10 06:56:22 51°14.361 2°55.075 19.7706 0.005812 0.035249 43.411777
2006-05-10 06:56:26 51°14.368 2°55.061 19.7724 0.005812 0.035249 43.445486
2006-05-10 06:56:32 51°14.377 2°55.041 19.6813 0.005812 0.035249 43.411777
2006-05-10 06:56:36 51°14.384 2°55.027 19.671 0.005812 0.035249 43.411777
2006-05-10 06:56:42 51°14.394 2°55.006 19.6895 0.005812 0.035249 43.411777
2006-05-10 06:56:47 51°14.402 2°54.987 19.6672 0.005812 0.035249 43.411777
2006-05-10 06:56:52 51°14.411 2°54.969 19.7445 0.005812 0.035249 43.445486
2006-05-10 06:56:57 51°14.418 2°54.951 19.7083 0.005812 0.035249 43.411777
2006-05-10 06:57:02 51°14.426 2°54.93 19.7387 0.005812 0.035249 43.445486
2006-05-10 06:57:06 51°14.432 2°54.914 19.6849 0.005812 0.035249 43.411777
2006-05-10 06:57:12 51°14.441 2°54.887 19.6957 0.005812 0.035249 43.411777
2006-05-10 06:57:17 51°14.447 2°54.865 19.6194 0.005812 0.035249 43.411777
2006-05-10 06:57:21 51°14.452 2°54.847 19.7016 0.005812 0.035249 43.411777
2006-05-10 06:57:25 51°14.457 2°54.828 19.623 0.005812 0.035248 43.445486
2006-05-10 06:57:31 51°14.464 2°54.797 19.6246 0.005812 0.035248 43.378067
2006-05-10 06:57:37 51°14.47 2°54.767 19.6114 0.005812 0.035248 43.411777
2006-05-10 06:57:42 51°14.476 2°54.741 19.5632 0.005812 0.035248 43.411777
2006-05-10 06:57:46 51°14.48 2°54.72 19.6162 0.005812 0.035248 43.378067
2006-05-10 06:57:52 51°14.487 2°54.689 19.576 0.005812 0.035248 43.378067
2006-05-10 06:57:56 51°14.492 2°54.668 19.5317 0.005812 0.035247 43.378067
2006-05-10 06:58:02 51°14.5 2°54.636 19.5611 0.005812 0.035247 43.411777
2006-05-10 06:58:07 51°14.507 2°54.61 19.5165 0.005812 0.035247 43.378067
2006-05-10 06:58:12 51°14.514 2°54.585 19.5809 0.005812 0.035247 43.378067
2006-05-10 06:58:17 51°14.523 2°54.559 19.5222 0.005812 0.035247 43.344358
2006-05-10 06:58:22 51°14.531 2°54.535 19.5673 0.005812 0.035247 43.411777
2006-05-10 06:58:26 51°14.537 2°54.515 19.5484 0.005812 0.035246 43.344358
2006-05-10 06:58:30 51°14.544 2°54.495 19.58 0.005812 0.035246 43.378067
2006-05-10 06:58:37 51°14.557 2°54.461 19.5461 0.005812 0.035246 43.378067
2006-05-10 06:58:42 51°14.567 2°54.437 19.5744 0.005812 0.035246 43.378067
2006-05-10 06:58:46 51°14.575 2°54.418 19.5939 0.005812 0.035246 43.378067
2006-05-10 06:58:52 51°14.587 2°54.389 19.5997 0.005812 0.035246 43.378067
2006-05-10 06:58:57 51°14.597 2°54.366 19.5945 0.005812 0.035246 43.344358
2006-05-10 06:59:02 51°14.607 2°54.342 19.6151 0.005812 0.035246 43.344358
2006-05-10 06:59:06 51°14.615 2°54.323 19.5541 0.005812 0.035246 43.378067
2006-05-10 06:59:12 51°14.626 2°54.294 19.602 0.005812 0.035246 43.378067
2006-05-10 06:59:17 51°14.635 2°54.27 19.5652 0.005812 0.035246 43.344358
2006-05-10 06:59:22 51°14.645 2°54.245 19.6073 0.005812 0.035246 43.344358
2006-05-10 06:59:26 51°14.652 2°54.225 19.5983 0.005812 0.035246 43.344358
2006-05-10 06:59:32 51°14.662 2°54.196 19.5708 0.005812 0.035246 43.310648
2006-05-10 06:59:37 51°14.671 2°54.171 19.5959 0.005812 0.035246 43.344358
2006-05-10 06:59:42 51°14.68 2°54.146 19.5371 0.005812 0.035246 43.344358
2006-05-10 06:59:47 51°14.689 2°54.121 19.5021 0.005812 0.035246 43.378067
2006-05-10 06:59:51 51°14.696 2°54.101 19.4515 0.005812 0.035246 43.310648
2006-05-10 06:59:57 51°14.708 2°54.074 19.4356 0.005812 0.035246 43.378067
2006-05-10 07:00:02 51°14.719 2°54.052 19.4882 0.005812 0.035246 43.378067
2006-05-10 07:00:07 51°14.73 2°54.031 19.4451 0.005812 0.035246 43.378067
2006-05-10 07:00:12 51°14.743 2°54.01 19.504 0.005812 0.035246 43.378067
2006-05-10 07:00:17 51°14.755 2°53.991 19.4937 0.005812 0.035245 43.310648
2006-05-10 07:00:22 51°14.767 2°53.972 19.4956 0.005812 0.035245 43.378067
2006-05-10 07:00:27 51°14.78 2°53.952 19.5025 0.005812 0.035245 43.344358
2006-05-10 07:00:31 51°14.79 2°53.938 19.4995 0.005812 0.035245 43.344358
2006-05-10 07:00:37 51°14.805 2°53.915 19.4867 0.005812 0.035245 43.310648
2006-05-10 07:00:42 51°14.818 2°53.897 19.492 0.005812 0.035245 43.310648
2006-05-10 07:00:46 51°14.828 2°53.882 19.5012 0.005812 0.035245 43.344358
2006-05-10 07:00:52 51°14.844 2°53.86 19.5002 0.005812 0.035245 43.344358
2006-05-10 07:00:56 51°14.854 2°53.845 19.479 0.005812 0.035245 43.344358
2006-05-10 07:01:02 51°14.869 2°53.823 19.5174 0.005812 0.035245 43.310648
2006-05-10 07:01:06 51°14.88 2°53.808 19.5092 0.005812 0.035245 43.344358
2006-05-10 07:01:12 51°14.895 2°53.785 19.5123 0.005812 0.035245 43.344358
2006-05-10 07:01:16 51°14.904 2°53.769 19.5043 0.005812 0.035245 43.344358
2006-05-10 07:01:22 51°14.919 2°53.745 19.4977 0.005812 0.035245 43.344358
2006-05-10 07:01:26 51°14.928 2°53.729 19.5095 0.005812 0.035245 43.378067
2006-05-10 07:01:32 51°14.942 2°53.704 19.4992 0.005812 0.035245 43.344358
2006-05-10 07:01:36 51°14.951 2°53.688 19.4954 0.005812 0.035245 43.378067
2006-05-10 07:01:42 51°14.966 2°53.663 19.424 0.005812 0.035245 43.378067
2006-05-10 07:01:47 51°14.978 2°53.642 19.4935 0.005812 0.035245 43.344358
2006-05-10 07:01:52 51°14.99 2°53.623 19.444 0.005812 0.035245 43.378067
2006-05-10 07:01:56 51°15 2°53.608 19.4283 0.005812 0.035245 43.310648
2006-05-10 07:02:02 51°15.016 2°53.586 19.4771 0.005812 0.035245 43.344358
2006-05-10 07:02:07 51°15.029 2°53.569 19.459 0.005812 0.035245 43.344358
2006-05-10 07:02:12 51°15.043 2°53.552 19.4759 0.005812 0.035245 43.344358
2006-05-10 07:02:17 51°15.057 2°53.535 19.5002 0.005812 0.035244 43.310648
2006-05-10 07:02:22 51°15.07 2°53.519 19.5034 0.005812 0.035245 43.344358
2006-05-10 07:02:26 51°15.081 2°53.505 19.5243 0.005812 0.035244 43.344358
2006-05-10 07:02:30 51°15.092 2°53.492 19.4965 0.005812 0.035244 43.344358
2006-05-10 07:02:37 51°15.112 2°53.468 19.4989 0.005812 0.035244 43.344358
2006-05-10 07:02:42 51°15.125 2°53.451 19.4969 0.005812 0.035244 43.344358
2006-05-10 07:02:46 51°15.135 2°53.437 19.4837 0.005812 0.035244 43.344358
2006-05-10 07:02:52 51°15.151 2°53.414 19.4857 0.005812 0.035245 43.344358
2006-05-10 07:02:57 51°15.163 2°53.395 19.4716 0.005812 0.035244 43.344358
2006-05-10 07:03:02 51°15.176 2°53.375 19.4803 0.005812 0.035245 43.344358
2006-05-10 07:03:06 51°15.186 2°53.36 19.4773 0.005812 0.035244 43.344358
2006-05-10 07:03:12 51°15.201 2°53.336 19.4555 0.005812 0.035244 43.344358
2006-05-10 07:03:17 51°15.214 2°53.316 19.4815 0.005812 0.035245 43.344358
2006-05-10 07:03:22 51°15.226 2°53.297 19.4633 0.005812 0.035245 43.310648
2006-05-10 07:03:27 51°15.239 2°53.277 19.4769 0.005812 0.035245 43.310648
2006-05-10 07:03:32 51°15.252 2°53.258 19.4839 0.005812 0.035244 43.344358
2006-05-10 07:03:36 51°15.262 2°53.243 19.4336 0.005812 0.035244 43.344358
2006-05-10 07:03:42 51°15.278 2°53.22 19.4695 0.005812 0.035244 43.344358
2006-05-10 07:03:47 51°15.291 2°53.203 19.4672 0.005812 0.035244 43.310648
2006-05-10 07:03:52 51°15.304 2°53.185 19.492 0.005812 0.035244 43.344358
2006-05-10 07:03:56 51°15.315 2°53.17 19.4606 0.005812 0.035244 43.344358
2006-05-10 07:04:00 51°15.326 2°53.156 19.4618 0.005812 0.035244 43.344358
2006-05-10 07:04:05 51°15.339 2°53.139 19.4774 0.005812 0.035244 43.378067
2006-05-10 07:04:10 51°15.352 2°53.121 19.4803 0.005812 0.035244 43.378067
2006-05-10 07:04:17 51°15.371 2°53.097 19.497 0.005812 0.035244 43.310648
2006-05-10 07:04:22 51°15.385 2°53.079 19.4737 0.005812 0.035244 43.310648
2006-05-10 07:04:27 51°15.399 2°53.06 19.4732 0.005812 0.035244 43.344358
2006-05-10 07:04:31 51°15.409 2°53.046 19.493 0.005812 0.035244 43.310648
2006-05-10 07:04:37 51°15.425 2°53.023 19.4683 0.005812 0.035244 43.310648
2006-05-10 07:04:42 51°15.437 2°53.003 19.4808 0.005812 0.035244 43.310648
2006-05-10 07:04:46 51°15.447 2°52.987 19.4729 0.005812 0.035244 43.310648
2006-05-10 07:04:50 51°15.457 2°52.972 19.473 0.005812 0.035244 43.310648
2006-05-10 07:04:56 51°15.471 2°52.947 19.477 0.005812 0.035244 43.310648
2006-05-10 07:05:01 51°15.483 2°52.927 19.4811 0.005812 0.035244 43.310648
2006-05-10 07:05:07 51°15.497 2°52.901 19.4955 0.005812 0.035244 43.310648
2006-05-10 07:05:12 51°15.508 2°52.88 19.4903 0.005812 0.035244 43.310648
2006-05-10 07:05:16 51°15.518 2°52.862 19.4976 0.005812 0.035244 43.344358
2006-05-10 07:05:22 51°15.53 2°52.835 19.5061 0.005812 0.035244 43.310648
2006-05-10 07:05:27 51°15.54 2°52.811 19.4886 0.005812 0.035244 43.310648
2006-05-10 07:05:32 51°15.549 2°52.787 19.4982 0.005812 0.035244 43.310648
2006-05-10 07:05:37 51°15.558 2°52.762 19.4718 0.005812 0.035243 43.310648
2006-05-10 07:05:42 51°15.566 2°52.735 19.4741 0.005812 0.035243 43.310648
2006-05-10 07:05:47 51°15.573 2°52.709 19.482 0.005812 0.035243 43.276939
2006-05-10 07:05:52 51°15.579 2°52.682 19.4845 0.005812 0.035242 43.310648
2006-05-10 07:05:56 51°15.583 2°52.661 19.4891 0.005812 0.035242 43.276939
2006-05-10 07:06:02 51°15.589 2°52.627 19.481 0.005812 0.035241 43.310648
2006-05-10 07:06:07 51°15.594 2°52.598 19.4878 0.005812 0.035241 43.276939
2006-05-10 07:06:12 51°15.597 2°52.57 19.4492 0.005812 0.035241 43.276939
2006-05-10 07:06:16 51°15.6 2°52.546 19.4468 0.005708 0.034722 43.310648
2006-05-10 07:06:20 51°15.603 2°52.523 19.4507 0.005812 0.035241 43.344358
2006-05-10 07:06:26 51°15.605 2°52.489 19.4447 0.005812 0.03524 43.310648
2006-05-10 07:06:32 51°15.608 2°52.454 19.4378 0.005812 0.03524 43.310648
2006-05-10 07:06:36 51°15.61 2°52.43 19.449 0.005812 0.03524 43.276939
2006-05-10 07:06:42 51°15.612 2°52.395 19.4592 0.005812 0.03524 43.276939
2006-05-10 07:06:47 51°15.615 2°52.365 19.4678 0.005812 0.03524 43.310648
2006-05-10 07:06:52 51°15.617 2°52.335 19.4332 0.005812 0.035239 43.310648
2006-05-10 07:06:56 51°15.619 2°52.312 19.4384 0.005708 0.034721 43.276939
2006-05-10 07:07:02 51°15.622 2°52.277 19.4405 0.005812 0.035239 43.310648
2006-05-10 07:07:07 51°15.625 2°52.248 19.4532 0.005812 0.035239 43.344358
2006-05-10 07:07:12 51°15.628 2°52.218 19.4536 0.005812 0.035239 43.344358
2006-05-10 07:07:17 51°15.632 2°52.189 19.4623 0.005812 0.035239 43.24323
2006-05-10 07:07:22 51°15.635 2°52.16 19.4698 0.005708 0.03472 43.310648
2006-05-10 07:07:26 51°15.638 2°52.136 19.4798 0.005812 0.035238 43.310648
2006-05-10 07:07:30 51°15.64 2°52.113 19.4661 0.005812 0.035239 43.310648
2006-05-10 07:07:37 51°15.645 2°52.071 19.456 0.005812 0.035239 43.276939
2006-05-10 07:07:42 51°15.648 2°52.042 19.4661 0.005812 0.035239 43.276939
2006-05-10 07:07:46 51°15.65 2°52.019 19.4549 0.005812 0.035239 43.310648
2006-05-10 07:07:52 51°15.654 2°51.984 19.479 0.005812 0.035239 43.276939
2006-05-10 07:07:57 51°15.658 2°51.954 19.455 0.005812 0.035239 43.310648
2006-05-10 07:08:02 51°15.66 2°51.925 19.4887 0.005708 0.03472 43.276939
2006-05-10 07:08:06 51°15.663 2°51.901 19.4723 0.005812 0.035239 43.276939
2006-05-10 07:08:12 51°15.667 2°51.866 19.4681 0.005812 0.035239 43.276939
2006-05-10 07:08:17 51°15.671 2°51.837 19.4725 0.005812 0.035239 43.310648
2006-05-10 07:08:22 51°15.673 2°51.808 19.4532 0.005812 0.035239 43.344358
2006-05-10 07:08:26 51°15.676 2°51.785 19.4725 0.005812 0.035238 43.310648
2006-05-10 07:08:32 51°15.68 2°51.749 19.4791 0.005812 0.035239 43.24323
2006-05-10 07:08:37 51°15.683 2°51.72 19.5052 0.005812 0.035239 43.276939
2006-05-10 07:08:42 51°15.686 2°51.691 19.4769 0.005812 0.035239 43.276939
2006-05-10 07:08:46 51°15.688 2°51.668 19.4703 0.005708 0.034721 43.310648
2006-05-10 07:08:52 51°15.692 2°51.632 19.4798 0.005812 0.035239 43.276939
2006-05-10 07:08:57 51°15.695 2°51.602 19.4088 0.005812 0.035239 43.276939
2006-05-10 07:09:02 51°15.698 2°51.574 14.5789 0.005708 0.034721 43.24323
2006-05-10 07:09:07 51°15.701 2°51.544 13.5534 0.005812 0.035257 43.24323
2006-05-10 07:09:12 51°15.705 2°51.515 12.7861 0.005812 0.035257 43.24323
2006-05-10 07:09:16 51°15.707 2°51.492 12.585 0.005812 0.035258 43.310648
2006-05-10 07:09:22 51°15.711 2°51.456 12.3723 1.904465 12.696265 61.480016
2006-05-10 07:09:27 51°15.714 2°51.427 12.2493 3.236407 22.502274 68.188187
2006-05-10 07:09:32 51°15.717 2°51.398 12.1721 3.34035 24.427388 46.850136
2006-05-10 07:09:37 51°15.72 2°51.369 12.1809 3.566485 27.302654 35.726033
2006-05-10 07:09:42 51°15.723 2°51.339 12.1059 3.566485 27.302654 35.726033
2006-05-10 07:09:47 51°15.726 2°51.31 12.1254 3.730632 29.846336 31.984289
2006-05-10 07:09:52 51°15.729 2°51.281 12.1908 3.779427 31.129526 30.770751
2006-05-10 07:09:57 51°15.733 2°51.252 12.0309 3.760154 31.488377 30.062853
2006-05-10 07:10:02 51°15.736 2°51.223 12.0578 3.703476 31.252091 29.422375
2006-05-10 07:10:06 51°15.739 2°51.199 12.0998 3.682197 31.230968 29.186409
2006-05-10 07:10:12 51°15.743 2°51.165 12.0248 3.682197 31.230968 29.186409
2006-05-10 07:10:16 51°15.745 2°51.142 11.9684 3.695262 31.438087 28.815606
2006-05-10 07:10:22 51°15.75 2°51.107 11.9969 3.709696 31.655479 28.478512
2006-05-10 07:10:26 51°15.752 2°51.083 11.9356 3.696001 31.568896 27.939161
2006-05-10 07:10:32 51°15.756 2°51.048 11.955 3.672403 31.390005 27.500939
2006-05-10 07:10:36 51°15.758 2°51.025 11.9073 3.719497 31.893236 27.197554
2006-05-10 07:10:42 51°15.761 2°50.99 11.9293 3.719497 31.893236 27.197554
2006-05-10 07:10:47 51°15.764 2°50.96 11.8828 3.711174 31.841174 26.927879
2006-05-10 07:10:52 51°15.768 2°50.932 11.9066 3.705907 31.8269 26.489657
2006-05-10 07:10:56 51°15.77 2°50.909 11.8879 3.716127 31.962075 26.017725
2006-05-10 07:11:02 51°15.773 2°50.874 11.8899 3.717497 32.011479 25.579503
2006-05-10 07:11:07 51°15.776 2°50.845 11.9015 3.704749 31.912878 25.309828
2006-05-10 07:11:12 51°15.779 2°50.817 11.8698 3.704749 31.912878 25.309828
2006-05-10 07:11:17 51°15.782 2°50.789 11.8491 3.710544 31.98523 25.2087
2006-05-10 07:11:22 51°15.785 2°50.76 11.8564 3.71518 32.045879 24.871606
2006-05-10 07:11:26 51°15.787 2°50.737 11.8496 3.707173 31.985906 24.770477
2006-05-10 07:11:30 51°15.789 2°50.715 11.8109 3.695163 31.879402 24.770477
2006-05-10 07:11:37 51°15.793 2°50.676 11.8308 3.697797 31.912751 26.624494
2006-05-10 07:11:42 51°15.796 2°50.648 11.7902 3.697797 31.912751 26.624494
2006-05-10 07:11:47 51°15.799 2°50.619 11.7616 3.644173 31.411209 24.365965
2006-05-10 07:11:52 51°15.802 2°50.591 11.7664 3.6447 31.434161 23.658067
2006-05-10 07:11:56 51°15.805 2°50.569 11.7654 3.690212 31.875585 23.52323
2006-05-10 07:12:02 51°15.809 2°50.535 11.7578 3.670406 31.702803 23.48952
2006-05-10 07:12:06 51°15.811 2°50.513 11.7872 3.703803 32.046115 23.556939
2006-05-10 07:12:12 51°15.815 2°50.479 11.746 3.703803 32.046115 23.556939
2006-05-10 07:12:17 51°15.818 2°50.451 11.7243 3.719606 32.206437 23.556939
2006-05-10 07:12:21 51°15.82 2°50.429 11.7317 3.724769 32.271195 23.556939
2006-05-10 07:12:27 51°15.823 2°50.396 11.7407 3.722768 32.26556 23.624358
2006-05-10 07:12:32 51°15.826 2°50.367 11.7396 3.705595 32.113618 23.624358
2006-05-10 07:12:37 51°15.829 2°50.34 11.7203 3.718027 32.235547 23.691777
2006-05-10 07:12:42 51°15.832 2°50.311 11.7292 3.718027 32.235547 23.691777
2006-05-10 07:12:47 51°15.834 2°50.283 11.7101 3.686736 31.939334 23.826614
2006-05-10 07:12:52 51°15.838 2°50.255 11.7214 3.69959 32.078162 23.826614
2006-05-10 07:12:56 51°15.84 2°50.233 11.6941 3.72909 32.372469 23.894033
2006-05-10 07:13:02 51°15.844 2°50.199 11.7018 3.714024 32.233134 23.927742
2006-05-10 07:13:07 51°15.846 2°50.171 11.7128 3.722874 32.321344 23.995161
2006-05-10 07:13:12 51°15.849 2°50.143 11.6952 3.722874 32.321344 23.995161
2006-05-10 07:13:17 51°15.852 2°50.115 11.6997 3.724665 32.344137 24.129999
2006-05-10 07:13:22 51°15.855 2°50.087 11.6923 3.723506 32.337058 24.197418
2006-05-10 07:13:27 51°15.858 2°50.059 11.6785 3.703172 32.15021 24.433383
2006-05-10 07:13:31 51°15.86 2°50.037 11.6905 3.704753 32.172303 24.500802
2006-05-10 07:13:37 51°15.863 2°50.004 11.672 3.704542 32.175735 24.568221
2006-05-10 07:13:42 51°15.867 2°49.976 11.667 3.704542 32.175735 24.568221
2006-05-10 07:13:46 51°15.869 2°49.954 11.6651 3.702119 32.155055 24.63564
2006-05-10 07:13:52 51°15.873 2°49.92 11.6617 3.699274 32.130986 24.770477
2006-05-10 07:13:56 51°15.874 2°49.898 11.65 3.716553 32.304849 24.804187
2006-05-10 07:14:02 51°15.877 2°49.864 11.6565 3.722137 32.363672 24.770477
2006-05-10 07:14:06 51°15.88 2°49.841 11.6566 3.710864 32.262178 24.837896
2006-05-10 07:14:12 51°15.883 2°49.807 11.6474 3.710864 32.262178 24.837896
2006-05-10 07:14:16 51°15.885 2°49.785 11.6432 3.72161 32.37165 24.871606
2006-05-10 07:14:22 51°15.888 2°49.751 11.6412 3.723085 32.392126 24.837896
2006-05-10 07:14:26 51°15.891 2°49.728 11.648 3.717185 32.345337 24.837896
2006-05-10 07:14:32 51°15.894 2°49.694 11.6396 3.697273 32.158111 24.837896
2006-05-10 07:14:36 51°15.897 2°49.672 11.6409 3.725298 32.430793 24.804187
2006-05-10 07:14:42 51°15.9 2°49.638 11.6347 3.725298 32.430793 24.804187
2006-05-10 07:14:46 51°15.903 2°49.615 11.6224 3.721084 32.389973 24.770477
2006-05-10 07:14:52 51°15.907 2°49.581 11.6257 3.731514 32.496551 24.804187
2006-05-10 07:14:56 51°15.909 2°49.558 11.6212 3.727932 32.466676 24.871606
2006-05-10 07:15:02 51°15.912 2°49.524 11.6259 3.722348 32.413947 24.804187
2006-05-10 07:15:06 51°15.914 2°49.501 11.6166 3.734359 32.531047 24.770477
2006-05-10 07:15:12 51°15.917 2°49.467 11.6097 3.734359 32.531047 24.770477
2006-05-10 07:15:16 51°15.919 2°49.443 11.6117 3.728459 32.480081 24.837896
2006-05-10 07:15:22 51°15.922 2°49.408 11.6031 3.706124 32.272598 24.837896
2006-05-10 07:15:27 51°15.925 2°49.379 11.6115 3.698222 32.197436 24.804187
2006-05-10 07:15:32 51°15.927 2°49.351 11.6017 3.724982 32.46159 24.804187
2006-05-10 07:15:36 51°15.93 2°49.328 11.6085 3.729724 32.508956 24.837896
2006-05-10 07:15:42 51°15.934 2°49.294 11.6028 3.729724 32.508956 24.837896
2006-05-10 07:15:47 51°15.937 2°49.264 11.6031 3.706124 32.28429 24.837896
2006-05-10 07:15:52 51°15.94 2°49.236 11.6063 3.726879 32.489674 24.871606
2006-05-10 07:15:57 51°15.943 2°49.207 11.5977 3.735729 32.577628 24.837896
2006-05-10 07:16:02 51°15.946 2°49.179 11.5974 3.702542 32.255766 24.837896
2006-05-10 07:16:06 51°15.948 2°49.156 11.6055 3.725931 32.484631 24.871606
2006-05-10 07:16:10 51°15.951 2°49.133 11.5947 3.725931 32.484631 24.871606
2006-05-10 07:16:17 51°15.954 2°49.092 11.5955 3.733517 32.56171 24.905315
2006-05-10 07:16:22 51°15.957 2°49.063 11.5923 3.723297 32.465308 24.905315
2006-05-10 07:16:26 51°15.959 2°49.04 11.6013 3.732674 32.559778 24.905315
2006-05-10 07:16:32 51°15.962 2°49.005 11.59 3.730461 32.538995 24.972734
2006-05-10 07:16:36 51°15.964 2°48.982 11.5954 3.734887 32.583342 24.972734
2006-05-10 07:16:42 51°15.968 2°48.947 11.5919 3.734887 32.583342 24.972734
2006-05-10 07:16:46 51°15.97 2°48.924 11.5981 3.735413 32.589847 24.939024
2006-05-10 07:16:52 51°15.974 2°48.889 11.5868 3.719399 32.435789 25.006443
2006-05-10 07:16:56 51°15.976 2°48.866 11.5991 3.738469 32.622996 25.040153
2006-05-10 07:17:02 51°15.979 2°48.831 11.5955 3.73594 32.59983 25.006443
2006-05-10 07:17:06 51°15.982 2°48.808 11.5834 3.695378 32.206943 25.006443
2006-05-10 07:17:12 51°15.986 2°48.773 11.5752 3.695378 32.206943 25.006443
2006-05-10 07:17:16 51°15.988 2°48.751 11.5776 3.727195 32.517003 25.040153
2006-05-10 07:17:22 51°15.992 2°48.716 11.5757 3.716554 32.414411 25.073862
2006-05-10 07:17:26 51°15.995 2°48.693 11.5796 3.734676 32.59242 25.107571
2006-05-10 07:17:32 51°15.999 2°48.658 11.5824 3.737626 32.623858 25.107571
2006-05-10 07:17:36 51°16.002 2°48.635 11.5697 3.739839 32.64605 25.17499
2006-05-10 07:17:42 51°16.005 2°48.6 11.5686 3.739839 32.64605 25.17499
2006-05-10 07:17:46 51°16.007 2°48.576 11.5701 3.746898 32.716738 25.2087
2006-05-10 07:17:52 51°16.01 2°48.54 11.5614 3.742473 32.677221 25.242409
2006-05-10 07:17:57 51°16.012 2°48.511 11.5731 3.723192 32.492697 25.276118
2006-05-10 07:18:02 51°16.015 2°48.482 11.565 3.749321 32.745883 25.309828
2006-05-10 07:18:05 51°16.017 2°48.465 11.5786 3.749953 32.756225 25.343537
2006-05-10 07:18:12 51°16.021 2°48.424 11.5726 3.749953 32.756225 25.343537
2006-05-10 07:18:16 51°16.023 2°48.401 11.5683 3.728671 32.554246 25.377247
2006-05-10 07:18:22 51°16.026 2°48.364 11.5591 3.723824 32.507857 25.377247
2006-05-10 07:18:27 51°16.029 2°48.336 11.5556 3.72983 32.568288 25.444665
2006-05-10 07:18:32 51°16.032 2°48.308 11.5613 3.72393 32.511657 25.444665
2006-05-10 07:18:37 51°16.035 2°48.278 11.5504 3.752377 32.786089 25.512084
2006-05-10 07:18:42 51°16.037 2°48.249 11.543 3.752377 32.786089 25.512084
2006-05-10 07:18:47 51°16.038 2°48.219 11.5484 3.752693 32.789164 25.545794
2006-05-10 07:18:52 51°16.038 2°48.19 11.5483 3.742894 32.698069 25.545794
2006-05-10 07:18:56 51°16.038 2°48.166 11.5474 3.7371 32.643822 25.545794
2006-05-10 07:19:02 51°16.036 2°48.131 11.5549 3.754379 32.816775 25.646922
2006-05-10 07:19:07 51°16.033 2°48.101 11.5536 3.760068 32.872846 25.680631
2006-05-10 07:19:12 51°16.03 2°48.072 11.5635 3.760068 32.872846 25.680631
2006-05-10 07:19:17 51°16.028 2°48.042 11.5674 3.753852 32.818661 25.714341
2006-05-10 07:19:22 51°16.028 2°48.012 11.5821 3.760279 32.885437 25.714341
2006-05-10 07:19:27 51°16.028 2°47.983 11.5685 3.733518 32.625027 25.781759
2006-05-10 07:19:31 51°16.03 2°47.96 11.5649 3.757434 32.859145 25.74805
2006-05-10 07:19:37 51°16.034 2°47.925 11.5643 3.750797 32.79243 25.781759
2006-05-10 07:19:42 51°16.038 2°47.897 11.5653 3.750797 32.79243 25.781759
2006-05-10 07:19:46 51°16.041 2°47.875 11.5561 3.75775 32.857306 25.781759
2006-05-10 07:19:52 51°16.047 2°47.841 11.5368 3.746582 32.742321 25.882888
2006-05-10 07:19:57 51°16.052 2°47.812 11.5426 3.737521 32.643735 25.916597
2006-05-10 07:20:02 51°16.056 2°47.785 11.5402 3.724035 32.513375 25.882888
2006-05-10 07:20:06 51°16.059 2°47.763 11.5314 3.747109 32.736954 25.950306
2006-05-10 07:20:12 51°16.064 2°47.728 11.5223 3.747109 32.736954 25.950306
2006-05-10 07:20:17 51°16.068 2°47.7 11.5255 3.752166 32.789642 25.984016
2006-05-10 07:20:22 51°16.072 2°47.671 11.527 3.749427 32.767895 26.085144
2006-05-10 07:20:26 51°16.076 2°47.648 11.5196 3.733623 32.622566 26.118853
2006-05-10 07:20:32 51°16.081 2°47.613 11.5243 3.75459 32.834259 26.118853
2006-05-10 07:20:37 51°16.085 2°47.585 11.5233 3.725089 32.553508 26.152563
2006-05-10 07:20:42 51°16.089 2°47.556 11.5272 3.725089 32.553508 26.152563
2006-05-10 07:20:46 51°16.092 2°47.534 11.5172 3.748057 32.780484 26.186272
2006-05-10 07:20:52 51°16.098 2°47.5 11.5322 3.747215 32.777185 26.219982
2006-05-10 07:20:57 51°16.103 2°47.471 11.5139 3.748163 32.789223 26.186272
2006-05-10 07:21:02 51°16.108 2°47.444 11.5108 3.737943 32.690424 26.219982
2006-05-10 07:21:06 51°16.111 2°47.422 11.5145 3.718241 32.500121 26.2874
2006-05-10 07:21:12 51°16.116 2°47.388 11.5273 3.718241 32.500121 26.2874
2006-05-10 07:21:17 51°16.121 2°47.359 11.5136 3.713289 32.45266 26.253691
2006-05-10 07:21:22 51°16.126 2°47.331 11.5099 3.713289 32.454048 26.2874
2006-05-10 07:21:27 51°16.13 2°47.303 11.5109 3.723193 32.551768 26.2874
2006-05-10 07:21:32 51°16.135 2°47.275 11.5031 3.73847 32.704646 26.32111
2006-05-10 07:21:37 51°16.139 2°47.246 11.5057 3.744581 32.76836 26.354819
2006-05-10 07:21:42 51°16.143 2°47.218 11.5086 3.744581 32.76836 26.354819
2006-05-10 07:21:47 51°16.147 2°47.19 11.4997 3.739524 32.717004 26.32111
2006-05-10 07:21:51 51°16.151 2°47.166 11.5117 3.746056 32.779922 26.354819
2006-05-10 07:21:57 51°16.156 2°47.132 11.4991 3.713606 32.466149 26.354819
2006-05-10 07:22:02 51°16.16 2°47.105 11.5001 3.740999 32.736272 26.354819
2006-05-10 07:22:07 51°16.164 2°47.076 11.496 3.713079 32.468667 26.388529
2006-05-10 07:22:12 51°16.168 2°47.048 11.4909 3.713079 32.468667 26.388529
2006-05-10 07:22:17 51°16.172 2°47.02 11.4863 3.716134 32.499091 26.388529
2006-05-10 07:22:22 51°16.176 2°46.992 11.4856 3.748585 32.817194 26.455947
2006-05-10 07:22:27 51°16.18 2°46.963 11.4854 3.753747 32.867511 26.388529
2006-05-10 07:22:31 51°16.183 2°46.941 11.4931 3.759332 32.923358 26.422238
2006-05-10 07:22:37 51°16.188 2°46.906 11.4896 3.759437 32.9265 26.489657
2006-05-10 07:22:42 51°16.192 2°46.878 11.4842 3.759437 32.9265 26.489657
2006-05-10 07:22:46 51°16.196 2°46.856 11.4831 3.764916 32.982048 26.523366
2006-05-10 07:22:52 51°16.201 2°46.822 11.4834 3.7646 32.98179 26.523366
2006-05-10 07:22:57 51°16.205 2°46.794 11.491 3.766391 33.002796 26.590785
2006-05-10 07:23:02 51°16.21 2°46.766 11.4839 3.764389 32.987505 26.590785
2006-05-10 07:23:06 51°16.213 2°46.744 11.4772 3.769025 33.032033 26.590785
2006-05-10 07:23:12 51°16.218 2°46.71 11.479 3.769025 33.032033 26.590785
2006-05-10 07:23:17 51°16.222 2°46.683 11.4789 3.77029 33.044372 26.658204
2006-05-10 07:23:22 51°16.227 2°46.654 11.4863 3.772291 33.066034 26.658204
2006-05-10 07:23:26 51°16.23 2°46.632 11.4934 3.77482 33.091426 26.725623
2006-05-10 07:23:32 51°16.234 2°46.599 11.4862 3.775558 33.099335 26.725623
2006-05-10 07:23:37 51°16.239 2°46.57 11.4892 3.775769 33.10281 26.759332
2006-05-10 07:23:42 51°16.242 2°46.542 11.483 3.775769 33.10281 26.759332
2006-05-10 07:23:46 51°16.246 2°46.52 11.4789 3.777349 33.120369 26.759332
2006-05-10 07:23:52 51°16.251 2°46.487 11.4756 3.777244 33.11934 26.793042
2006-05-10 07:23:57 51°16.255 2°46.459 11.4774 3.776611 33.112458 26.86046
2006-05-10 07:24:02 51°16.259 2°46.431 11.4766 3.778508 33.128137 26.86046
2006-05-10 07:24:07 51°16.263 2°46.403 11.485 3.778297 33.12466 26.86046
2006-05-10 07:24:12 51°16.266 2°46.376 11.4833 3.778297 33.12466 26.86046
2006-05-10 07:24:17 51°16.27 2°46.347 11.4907 3.775031 33.094901 26.89417
2006-05-10 07:24:22 51°16.274 2°46.32 11.4912 3.769341 33.043612 26.927879
2006-05-10 07:24:25 51°16.276 2°46.304 11.4938 3.776506 33.114977 26.961589
2006-05-10 07:24:32 51°16.282 2°46.264 11.4921 3.780299 33.15415 26.995298
2006-05-10 07:24:36 51°16.286 2°46.242 11.4876 3.780089 33.151381 27.029007
2006-05-10 07:24:42 51°16.291 2°46.209 11.4893 3.780089 33.151381 27.029007
2006-05-10 07:24:46 51°16.294 2°46.186 11.4893 3.773345 33.084115 27.062717
2006-05-10 07:24:52 51°16.299 2°46.153 11.4981 3.779772 33.143322 27.062717
2006-05-10 07:24:56 51°16.302 2°46.131 11.5028 3.767234 33.017384 27.062717
2006-05-10 07:25:02 51°16.307 2°46.098 11.5028 3.781985 33.159956 27.096426
2006-05-10 07:25:06 51°16.31 2°46.076 11.4986 3.781985 33.159245 27.130136
2006-05-10 07:25:12 51°16.315 2°46.042 11.5046 3.781985 33.159245 27.130136
2006-05-10 07:25:16 51°16.319 2°46.02 11.5086 3.783355 33.174041 27.130136
2006-05-10 07:25:22 51°16.324 2°45.987 11.5083 3.783144 33.173405 27.163845
2006-05-10 07:25:27 51°16.329 2°45.959 11.5173 3.784303 33.180458 27.130136
2006-05-10 07:25:32 51°16.332 2°45.93 11.514 3.779878 33.135121 27.163845
2006-05-10 07:25:36 51°16.336 2°45.908 11.5169 3.786305 33.195029 27.163845
2006-05-10 07:25:42 51°16.342 2°45.876 11.525 3.786305 33.195029 27.163845
2006-05-10 07:25:47 51°16.346 2°45.848 11.5244 3.780404 33.136006 27.197554
2006-05-10 07:25:52 51°16.35 2°45.82 11.5286 3.788412 33.210627 27.197554
2006-05-10 07:25:57 51°16.356 2°45.793 11.529 3.789466 33.219491 27.163845
2006-05-10 07:26:02 51°16.361 2°45.766 11.5281 3.790941 33.231759 27.163845
2006-05-10 07:26:06 51°16.366 2°45.744 11.5302 3.780404 33.126783 27.163845
2006-05-10 07:26:10 51°16.372 2°45.723 11.5299 3.780404 33.126783 27.163845
2006-05-10 07:26:17 51°16.381 2°45.686 11.5276 3.793996 33.255897 27.130136
2006-05-10 07:26:22 51°16.388 2°45.66 11.5291 3.797579 33.287311 27.130136
2006-05-10 07:26:26 51°16.393 2°45.639 11.5289 3.795155 33.261516 27.163845
2006-05-10 07:26:32 51°16.402 2°45.608 11.5335 3.797473 33.282008 27.130136
2006-05-10 07:26:37 51°16.409 2°45.581 11.5302 3.80211 33.325131 27.130136
2006-05-10 07:26:42 51°16.415 2°45.555 11.5289 3.80211 33.325131 27.130136
2006-05-10 07:26:46 51°16.42 2°45.535 11.5263 3.799475 33.299414 27.096426
2006-05-10 07:26:52 51°16.429 2°45.502 11.5242 3.803795 33.343018 27.096426
2006-05-10 07:26:57 51°16.435 2°45.476 11.5292 3.802636 33.330274 27.130136
2006-05-10 07:27:02 51°16.442 2°45.449 11.5279 3.803374 33.335335 27.096426
2006-05-10 07:27:07 51°16.449 2°45.423 11.5345 3.805165 33.352824 27.130136
2006-05-10 07:27:12 51°16.456 2°45.397 11.5359 3.805165 33.352824 27.130136
2006-05-10 07:27:17 51°16.464 2°45.372 11.526 3.80369 33.339849 27.096426
2006-05-10 07:27:22 51°16.472 2°45.348 11.5329 3.800951 33.314528 27.029007
2006-05-10 07:27:25 51°16.478 2°45.333 11.5198 3.792627 33.236121 27.062717
2006-05-10 07:27:32 51°16.491 2°45.3 11.5099 3.802426 33.330357 27.096426
2006-05-10 07:27:36 51°16.498 2°45.281 11.5125 3.799581 33.301868 27.096426
2006-05-10 07:27:42 51°16.509 2°45.252 11.5012 3.799581 33.301868 27.096426
2006-05-10 07:27:46 51°16.517 2°45.232 11.4968 3.803269 33.334307 27.096426
2006-05-10 07:27:52 51°16.528 2°45.204 11.5009 3.803058 33.332963 27.130136
2006-05-10 07:27:56 51°16.535 2°45.185 11.4942 3.803795 33.341591 27.130136
2006-05-10 07:28:02 51°16.545 2°45.156 11.4883 3.799475 33.302978 27.163845
2006-05-10 07:28:06 51°16.553 2°45.136 11.4878 3.799054 33.305992 27.197554
2006-05-10 07:28:12 51°16.563 2°45.106 11.4925 3.799054 33.305992 27.197554
2006-05-10 07:28:17 51°16.573 2°45.082 11.4878 3.801056 33.32911 27.231264
2006-05-10 07:28:22 51°16.582 2°45.059 11.4844 3.800108 33.325557 27.231264
2006-05-10 07:28:25 51°16.588 2°45.044 11.4807 3.798106 33.310282 27.264973
2006-05-10 07:28:32 51°16.601 2°45.011 11.4799 3.797895 33.311791 27.264973
2006-05-10 07:28:36 51°16.608 2°44.992 11.4789 3.796631 33.303719 27.332392
2006-05-10 07:28:42 51°16.62 2°44.963 11.4773 3.796631 33.303719 27.332392
2006-05-10 07:28:47 51°16.629 2°44.939 11.4793 3.79779 33.317185 27.264973
2006-05-10 07:28:52 51°16.638 2°44.916 11.4678 3.795999 33.301823 27.264973
2006-05-10 07:28:57 51°16.647 2°44.891 11.4646 3.792627 33.269592 27.298683
2006-05-10 07:29:02 51°16.656 2°44.867 11.4651 3.791047 33.257001 27.332392
2006-05-10 07:29:06 51°16.664 2°44.848 11.4674 3.794313 33.291057 27.298683
2006-05-10 07:29:10 51°16.671 2°44.829 11.4634 3.794313 33.291057 27.298683
2006-05-10 07:29:17 51°16.683 2°44.794 11.4707 3.795051 33.298979 27.399811
2006-05-10 07:29:22 51°16.693 2°44.77 11.4633 3.789677 33.250744 27.332392
2006-05-10 07:29:26 51°16.7 2°44.751 11.4563 3.791152 33.268725 27.399811
2006-05-10 07:29:32 51°16.711 2°44.722 11.4534 3.789361 33.254783 27.43352
2006-05-10 07:29:37 51°16.721 2°44.697 11.4474 3.786305 33.227057 27.43352
2006-05-10 07:29:42 51°16.73 2°44.673 11.4336 3.786305 33.227057 27.43352
2006-05-10 07:29:47 51°16.739 2°44.648 11.4173 3.788307 33.247336 27.46723
2006-05-10 07:29:51 51°16.746 2°44.628 11.4129 3.787254 33.235612 27.500939
2006-05-10 07:29:57 51°16.758 2°44.599 11.394 3.7862 33.227452 27.534648
2006-05-10 07:30:02 51°16.767 2°44.575 11.3861 3.77598 33.131133 27.568358
2006-05-10 07:30:06 51°16.774 2°44.555 11.3736 3.785884 33.232914 27.635777
2006-05-10 07:30:12 51°16.785 2°44.526 11.3604 3.785884 33.232914 27.635777
2006-05-10 07:30:17 51°16.794 2°44.501 11.3512 3.787465 33.252645 27.703195
2006-05-10 07:30:22 51°16.803 2°44.476 11.3334 3.783461 33.227754 27.804324
2006-05-10 07:30:26 51°16.811 2°44.456 11.3378 3.779562 33.200315 27.804324
2006-05-10 07:30:32 51°16.821 2°44.425 11.3287 3.781143 33.228619 27.804324
2006-05-10 07:30:37 51°16.829 2°44.4 11.3206 3.781775 33.246947 27.770614
2006-05-10 07:30:42 51°16.839 2°44.375 11.3106 3.781775 33.246947 27.770614
2006-05-10 07:30:46 51°16.846 2°44.356 11.3088 3.782829 33.267987 27.770614
2006-05-10 07:30:52 51°16.857 2°44.326 11.2995 3.778615 33.238143 27.770614
2006-05-10 07:30:57 51°16.867 2°44.301 11.2939 3.779142 33.25904 27.703195
2006-05-10 07:31:02 51°16.875 2°44.276 11.2948 3.781776 33.292738 27.703195
2006-05-10 07:31:07 51°16.885 2°44.251 11.2854 3.779353 33.276858 27.602067
2006-05-10 07:31:12 51°16.893 2°44.226 11.2874 3.779353 33.276858 27.602067
2006-05-10 07:31:17 51°16.902 2°44.202 11.2816 3.777983 33.272022 27.534648
2006-05-10 07:31:22 51°16.912 2°44.176 11.2707 3.777667 33.274655 27.500939
2006-05-10 07:31:25 51°16.917 2°44.162 11.2734 3.775665 33.263615 27.43352
2006-05-10 07:31:32 51°16.93 2°44.126 11.2689 3.775665 33.270066 27.399811
2006-05-10 07:31:36 51°16.937 2°44.106 11.2635 3.776508 33.281207 27.366101
2006-05-10 07:31:42 51°16.948 2°44.076 11.2662 3.776508 33.281207 27.366101
2006-05-10 07:31:47 51°16.957 2°44.051 11.256 3.774928 33.270716 27.298683
2006-05-10 07:31:52 51°16.966 2°44.025 11.2489 3.774507 33.270882 27.298683
2006-05-10 07:31:56 51°16.973 2°44.005 11.2481 3.773558 33.269463 27.298683
2006-05-10 07:32:02 51°16.984 2°43.976 11.2491 3.771978 33.253947 27.264973
2006-05-10 07:32:07 51°16.994 2°43.951 11.2538 3.775244 33.289605 27.231264
2006-05-10 07:32:12 51°17.002 2°43.926 11.2429 3.775244 33.289605 27.231264
2006-05-10 07:32:16 51°17.01 2°43.906 11.2437 3.774718 33.290176 27.163845
2006-05-10 07:32:22 51°17.021 2°43.876 11.2395 3.77398 33.28724 27.197554
2006-05-10 07:32:26 51°17.028 2°43.856 11.2422 3.777246 33.325078 27.163845
2006-05-10 07:32:32 51°17.039 2°43.826 11.246 3.772821 33.284473 27.096426
2006-05-10 07:32:37 51°17.049 2°43.801 11.2479 3.768923 33.246893 27.062717
2006-05-10 07:32:42 51°17.058 2°43.776 11.2508 3.768923 33.246893 27.062717
2006-05-10 07:32:46 51°17.065 2°43.756 11.2541 3.773664 33.296348 27.062717
2006-05-10 07:32:52 51°17.077 2°43.728 11.2579 3.770714 33.27167 27.029007
2006-05-10 07:32:57 51°17.088 2°43.704 11.2547 3.77103 33.27693 27.029007
2006-05-10 07:33:02 51°17.099 2°43.682 11.2515 3.76945 33.262118 26.995298
2006-05-10 07:33:06 51°17.108 2°43.664 11.2497 3.770609 33.269916 26.927879
2006-05-10 07:33:12 51°17.121 2°43.639 11.2477 3.770609 33.269916 26.927879
2006-05-10 07:33:16 51°17.131 2°43.622 11.245 3.77398 33.302329 26.927879
2006-05-10 07:33:22 51°17.145 2°43.596 11.2523 3.769555 33.258128 26.89417
2006-05-10 07:33:26 51°17.154 2°43.579 11.248 3.762601 33.18695 26.86046
2006-05-10 07:33:30 51°17.164 2°43.562 11.2495 3.767764 33.236943 26.86046
2006-05-10 07:33:37 51°17.18 2°43.531 11.2514 3.769871 33.257644 26.826751
2006-05-10 07:33:42 51°17.191 2°43.51 11.2456 3.769871 33.257644 26.826751
2006-05-10 07:33:47 51°17.203 2°43.488 11.2491 3.773453 33.294996 26.826751
2006-05-10 07:33:52 51°17.214 2°43.467 11.249 3.77398 33.302329 26.759332
2006-05-10 07:33:56 51°17.224 2°43.449 11.248 3.773454 33.29787 26.793042
2006-05-10 07:34:02 51°17.238 2°43.424 11.248 3.77103 33.273339 26.759332
2006-05-10 07:34:06 51°17.247 2°43.407 11.2487 3.772821 33.290939 26.759332
2006-05-10 07:34:10 51°17.257 2°43.389 11.2546 3.772821 33.290939 26.759332
2006-05-10 07:34:17 51°17.273 2°43.361 11.2518 3.774823 33.31205 26.759332
2006-05-10 07:34:21 51°17.282 2°43.344 11.2542 3.773559 33.300344 26.725623
2006-05-10 07:34:25 51°17.292 2°43.326 11.2444 3.776614 33.330374 26.691913
2006-05-10 07:34:32 51°17.308 2°43.297 11.2466 3.776931 33.332761 26.691913
2006-05-10 07:34:37 51°17.32 2°43.277 11.2506 3.775455 33.318263 26.691913
2006-05-10 07:34:42 51°17.331 2°43.255 11.2409 3.775455 33.318263 26.691913
2006-05-10 07:34:47 51°17.343 2°43.233 11.2434 3.772294 33.286481 26.658204
2006-05-10 07:34:52 51°17.354 2°43.212 11.235 3.777141 33.332674 26.658204
2006-05-10 07:34:57 51°17.366 2°43.191 11.2422 3.779249 33.355545 26.658204
2006-05-10 07:35:02 51°17.378 2°43.17 11.2382 3.775139 33.316595 26.658204
2006-05-10 07:35:07 51°17.39 2°43.149 11.2452 3.776509 33.330777 26.658204
2006-05-10 07:35:12 51°17.402 2°43.129 11.242 3.776509 33.330777 26.658204
2006-05-10 07:35:16 51°17.411 2°43.112 11.2398 3.776509 33.330777 26.624494
2006-05-10 07:35:20 51°17.421 2°43.096 11.2414 3.778933 33.356039 26.590785
2006-05-10 07:35:27 51°17.438 2°43.066 11.2383 3.778195 33.351668 26.590785
2006-05-10 07:35:32 51°17.449 2°43.045 11.2377 3.779565 33.365855 26.557076
2006-05-10 07:35:33 51°17.451 2°43.042 11.2365 3.776193 33.332708 26.557076
2006-05-10 07:35:41 51°17.47 2°43.009 11.237 3.776193 33.332708 26.557076
2006-05-10 07:35:47 51°17.484 2°42.983 11.2418 3.774086 33.309835 26.590785
2006-05-10 07:35:52 51°17.496 2°42.963 11.2387 3.7783 33.352704 26.557076
2006-05-10 07:35:57 51°17.508 2°42.942 11.24 3.775245 33.323386 26.557076
2006-05-10 07:36:02 51°17.52 2°42.922 11.2365 3.777352 33.346262 26.489657
2006-05-10 07:36:07 51°17.532 2°42.9 11.2333 3.7724 33.297579 26.523366
2006-05-10 07:36:12 51°17.543 2°42.88 11.2387 3.7724 33.297579 26.523366
2006-05-10 07:36:16 51°17.553 2°42.863 11.2347 3.773559 33.308972 26.489657
2006-05-10 07:36:22 51°17.568 2°42.838 11.2315 3.771557 33.288575 26.523366
2006-05-10 07:36:25 51°17.575 2°42.825 11.2318 3.776088 33.333831 26.489657
2006-05-10 07:36:32 51°17.592 2°42.796 11.231 3.77672 33.341486 26.489657
2006-05-10 07:36:37 51°17.604 2°42.774 11.226 3.775772 33.333603 26.455947
2006-05-10 07:36:42 51°17.615 2°42.753 11.2377 3.775772 33.333603 26.455947
2006-05-10 07:36:47 51°17.628 2°42.731 11.2329 3.772927 33.306354 26.455947
2006-05-10 07:36:52 51°17.64 2°42.71 11.2333 3.77377 33.313202 26.455947
2006-05-10 07:36:56 51°17.649 2°42.693 11.2292 3.769028 33.269469 26.455947
2006-05-10 07:37:02 51°17.664 2°42.667 11.2286 3.767975 33.25983 26.422238
2006-05-10 07:37:07 51°17.676 2°42.644 11.2311 3.765973 33.242307 26.422238
2006-05-10 07:37:12 51°17.688 2°42.623 11.2419 3.765973 33.242307 26.422238
2006-05-10 07:37:17 51°17.7 2°42.602 11.2284 3.766289 33.245414 26.388529
2006-05-10 07:37:22 51°17.712 2°42.579 11.2348 3.769134 33.27266 26.422238
2006-05-10 07:37:26 51°17.722 2°42.562 11.229 3.77535 33.333778 26.388529
2006-05-10 07:37:32 51°17.736 2°42.538 11.2305 3.778406 33.364546 26.354819
2006-05-10 07:37:37 51°17.748 2°42.516 11.2385 3.776193 33.343507 26.354819
2006-05-10 07:37:42 51°17.761 2°42.494 11.2465 3.776193 33.343507 26.354819
2006-05-10 07:37:46 51°17.77 2°42.478 11.2375 3.775982 33.338555 26.32111
2006-05-10 07:37:52 51°17.785 2°42.451 11.2386 3.781461 33.392435 26.32111
2006-05-10 07:37:57 51°17.797 2°42.43 11.2328 3.77514 33.330267 26.32111
2006-05-10 07:38:02 51°17.809 2°42.408 11.2419 3.76945 33.275767 26.253691
2006-05-10 07:38:06 51°17.819 2°42.391 11.2484 3.765868 33.239836 26.2874
2006-05-10 07:38:12 51°17.833 2°42.365 11.2388 3.765868 33.239836 26.2874
2006-05-10 07:38:17 51°17.844 2°42.344 11.2455 3.773032 33.308109 26.2874
2006-05-10 07:38:22 51°17.857 2°42.322 11.2492 3.772084 33.298067 26.253691
2006-05-10 07:38:27 51°17.869 2°42.3 11.2581 3.775034 33.326351 26.253691
2006-05-10 07:38:32 51°17.88 2°42.279 11.2662 3.7724 33.301894 26.253691
2006-05-10 07:38:37 51°17.893 2°42.257 11.2692 3.777984 33.353198 26.219982
2006-05-10 07:38:42 51°17.904 2°42.236 11.2707 3.777984 33.353198 26.219982
2006-05-10 07:38:47 51°17.917 2°42.213 11.2747 3.780408 33.375584 26.186272
2006-05-10 07:38:51 51°17.925 2°42.195 11.2759 3.778722 33.360449 26.186272
2006-05-10 07:38:57 51°17.939 2°42.169 11.2756 3.774402 33.314381 26.186272
2006-05-10 07:39:02 51°17.95 2°42.145 11.2776 3.78557 33.418418 26.118853
2006-05-10 07:39:06 51°17.958 2°42.127 11.2803 3.786413 33.420212 26.085144
2006-05-10 07:39:12 51°17.972 2°42.099 11.2845 3.786413 33.420212 26.085144
2006-05-10 07:39:16 51°17.98 2°42.08 11.2935 3.788204 33.432771 26.118853
2006-05-10 07:39:22 51°17.993 2°42.051 11.2878 3.790417 33.450914 26.085144
2006-05-10 07:39:26 51°18.001 2°42.033 11.2915 3.791787 33.462213 26.085144
2006-05-10 07:39:32 51°18.015 2°42.004 11.2975 3.789153 33.434878 26.051435
2006-05-10 07:39:36 51°18.023 2°41.985 11.3017 3.792314 33.463782 26.051435
2006-05-10 07:39:42 51°18.036 2°41.957 11.304 3.792314 33.463782 26.051435
2006-05-10 07:39:46 51°18.044 2°41.938 11.3037 3.793473 33.473008 26.051435
2006-05-10 07:39:52 51°18.058 2°41.91 11.3032 3.795053 33.483487 26.017725
2006-05-10 07:39:56 51°18.066 2°41.891 11.3139 3.796107 33.490954 26.017725
2006-05-10 07:40:02 51°18.079 2°41.863 11.3129 3.796739 33.495722 25.984016
2006-05-10 07:40:06 51°18.088 2°41.844 11.316 3.794421 33.468612 25.984016
2006-05-10 07:40:12 51°18.101 2°41.816 11.3155 3.794421 33.468612 25.984016
2006-05-10 07:40:17 51°18.111 2°41.792 11.3111 3.795264 33.471842 25.984016
2006-05-10 07:40:22 51°18.122 2°41.769 11.3149 3.798741 33.503115 25.916597
2006-05-10 07:40:25 51°18.129 2°41.756 11.3111 3.798319 33.496808 25.916597
2006-05-10 07:40:32 51°18.144 2°41.723 11.3088 3.799162 33.502922 25.916597
2006-05-10 07:40:36 51°18.152 2°41.704 11.3055 3.797582 33.48451 25.882888
2006-05-10 07:40:42 51°18.165 2°41.675 11.3156 3.797582 33.48451 25.882888
2006-05-10 07:40:47 51°18.176 2°41.651 11.3166 3.798214 33.489276 25.882888
2006-05-10 07:40:52 51°18.186 2°41.627 11.3192 3.799478 33.501695 25.882888
2006-05-10 07:40:57 51°18.197 2°41.604 11.315 3.796317 33.47137 25.882888
2006-05-10 07:41:02 51°18.208 2°41.58 11.3096 3.801375 33.521048 25.916597
2006-05-10 07:41:06 51°18.216 2°41.561 11.3043 3.797055 33.480057 25.882888
2006-05-10 07:41:10 51°18.225 2°41.542 11.2964 3.797055 33.480057 25.882888
2006-05-10 07:41:17 51°18.24 2°41.508 11.2936 3.798951 33.498686 25.882888
2006-05-10 07:41:22 51°18.25 2°41.485 11.2878 3.798108 33.488241 25.882888
2006-05-10 07:41:26 51°18.259 2°41.466 11.2784 3.800743 33.511948 25.849178
2006-05-10 07:41:32 51°18.271 2°41.438 11.2896 3.798108 33.486798 25.849178
2006-05-10 07:41:37 51°18.282 2°41.414 11.2774 3.796528 33.474161 25.849178
2006-05-10 07:41:42 51°18.292 2°41.389 11.2791 3.796528 33.474161 25.849178
2006-05-10 07:41:47 51°18.302 2°41.367 11.279 3.797792 33.489467 25.849178
2006-05-10 07:41:51 51°18.311 2°41.348 11.2792 3.799478 33.511084 25.849178
2006-05-10 07:41:57 51°18.324 2°41.32 11.2702 3.796844 33.492424 25.849178
2006-05-10 07:42:02 51°18.334 2°41.296 11.2723 3.792735 33.458541 25.882888
2006-05-10 07:42:07 51°18.345 2°41.273 11.2638 3.797793 33.508968 25.815469
2006-05-10 07:42:12 51°18.356 2°41.25 11.2598 3.797793 33.508968 25.815469
2006-05-10 07:42:17 51°18.366 2°41.227 11.2516 3.800321 33.536718 25.815469
2006-05-10 07:42:22 51°18.377 2°41.202 11.2475 3.799373 33.527395 25.815469
2006-05-10 07:42:27 51°18.388 2°41.179 11.2436 3.799057 33.525734 25.74805
2006-05-10 07:42:31 51°18.396 2°41.16 11.2386 3.800638 33.547062 25.815469
2006-05-10 07:42:37 51°18.409 2°41.133 11.2422 3.800427 33.546437 25.781759
2006-05-10 07:42:42 51°18.42 2°41.11 11.24 3.800427 33.546437 25.781759
2006-05-10 07:42:46 51°18.428 2°41.091 11.2456 3.805379 33.60094 25.781759
2006-05-10 07:42:52 51°18.442 2°41.063 11.2506 3.808014 33.63121 25.781759
2006-05-10 07:42:57 51°18.452 2°41.04 11.2417 3.806749 33.624575 25.74805
2006-05-10 07:43:02 51°18.462 2°41.016 11.2445 3.799584 33.558423 25.74805
2006-05-10 07:43:06 51°18.471 2°40.998 11.2426 3.803588 33.600724 25.74805
2006-05-10 07:43:12 51°18.484 2°40.969 11.2425 3.803588 33.600724 25.74805
2006-05-10 07:43:17 51°18.495 2°40.946 11.2434 3.800322 33.570754 25.74805
2006-05-10 07:43:22 51°18.505 2°40.923 11.246 3.800638 33.57459 25.74805
2006-05-10 07:43:26 51°18.514 2°40.905 11.2481 3.797688 33.543384 25.714341
2006-05-10 07:43:32 51°18.526 2°40.877 11.2495 3.799163 33.559348 25.714341
2006-05-10 07:43:37 51°18.537 2°40.854 11.2541 3.80264 33.594293 25.680631
2006-05-10 07:43:42 51°18.547 2°40.83 11.2483 3.80264 33.594293 25.680631
2006-05-10 07:43:46 51°18.556 2°40.812 11.243 3.799374 33.562872 25.714341
2006-05-10 07:43:52 51°18.569 2°40.784 11.2484 3.7999 33.568056 25.714341
2006-05-10 07:43:57 51°18.58 2°40.76 11.2497 3.798847 33.556963 25.680631
2006-05-10 07:44:02 51°18.591 2°40.737 11.2522 3.7999 33.567331 25.646922
2006-05-10 07:44:07 51°18.602 2°40.715 11.2538 3.800216 33.566818 25.646922
2006-05-10 07:44:12 51°18.613 2°40.692 11.2577 3.800216 33.566818 25.646922
2006-05-10 07:44:17 51°18.624 2°40.67 11.2615 3.79832 33.547431 25.613212
2006-05-10 07:44:22 51°18.635 2°40.646 11.261 3.802851 33.59419 25.613212
2006-05-10 07:44:25 51°18.641 2°40.633 11.2656 3.802745 33.591703 25.579503
2006-05-10 07:44:32 51°18.656 2°40.6 11.2706 3.802745 33.590977 25.613212
2006-05-10 07:44:36 51°18.665 2°40.582 11.2682 3.814547 33.705686 25.613212
2006-05-10 07:44:42 51°18.677 2°40.554 11.2754 3.814547 33.705686 25.613212
2006-05-10 07:44:46 51°18.686 2°40.536 11.2734 3.8156 33.713876 25.579503
2006-05-10 07:44:52 51°18.699 2°40.508 11.2794 3.817602 33.730674 25.579503
2006-05-10 07:44:56 51°18.707 2°40.491 11.2776 3.820026 33.753077 25.579503
2006-05-10 07:45:02 51°18.72 2°40.463 11.2766 3.822028 33.769873 25.579503
2006-05-10 07:45:06 51°18.729 2°40.444 11.2756 3.823714 33.782827 25.545794
2006-05-10 07:45:12 51°18.742 2°40.417 11.2765 3.823714 33.782827 25.545794
2006-05-10 07:45:16 51°18.751 2°40.398 11.2798 3.825716 33.79962 25.545794
2006-05-10 07:45:22 51°18.763 2°40.37 11.2793 3.827718 33.816412 25.512084
2006-05-10 07:45:27 51°18.774 2°40.347 11.2824 3.82972 33.833934 25.512084
2006-05-10 07:45:32 51°18.785 2°40.324 11.2854 3.832038 33.856758 25.512084
2006-05-10 07:45:36 51°18.794 2°40.306 11.2872 3.834567 33.880929 25.512084
2006-05-10 07:45:42 51°18.807 2°40.28 11.2941 3.834567 33.880929 25.512084
2006-05-10 07:45:47 51°18.818 2°40.255 11.2946 3.836569 33.900645 25.512084
2006-05-10 07:45:52 51°18.828 2°40.233 11.2982 3.838149 33.914748 25.512084
2006-05-10 07:45:57 51°18.839 2°40.21 11.2971 3.838992 33.921586 25.512084
2006-05-10 07:46:02 51°18.85 2°40.187 11.2994 3.840362 33.93288 25.478375
2006-05-10 07:46:06 51°18.859 2°40.169 11.2988 3.841627 33.943136 25.478375
2006-05-10 07:46:10 51°18.868 2°40.151 11.3031 3.841627 33.943136 25.478375
2006-05-10 07:46:17 51°18.883 2°40.12 11.3005 3.842891 33.952659 25.444665
2006-05-10 07:46:22 51°18.894 2°40.098 11.2947 3.844155 33.962181 25.512084
2006-05-10 07:46:26 51°18.901 2°40.079 11.2945 3.845841 33.976586 25.478375
2006-05-10 07:46:32 51°18.914 2°40.05 11.2968 3.847 33.984335 25.444665
2006-05-10 07:46:36 51°18.921 2°40.03 11.2991 3.848054 33.993245 25.410956
2006-05-10 07:46:42 51°18.93 2°40.001 11.2985 3.848054 33.993245 25.410956
2006-05-10 07:46:46 51°18.937 2°39.98 11.303 3.849213 34.003926 25.444665
2006-05-10 07:46:52 51°18.948 2°39.949 11.3017 3.850056 34.012961 25.478375
2006-05-10 07:46:56 51°18.954 2°39.93 11.3047 3.850899 34.023464 25.444665
2006-05-10 07:47:02 51°18.964 2°39.899 11.3117 3.851848 34.033538 25.410956
2006-05-10 07:47:06 51°18.971 2°39.879 11.3159 3.852374 34.037259 25.410956
2006-05-10 07:47:12 51°18.98 2°39.848 11.3201 3.852374 34.037259 25.410956
2006-05-10 07:47:16 51°18.987 2°39.828 11.3207 3.852901 34.041714 25.377247
2006-05-10 07:47:22 51°18.997 2°39.797 11.3161 3.853323 34.044397 25.377247
2006-05-10 07:47:26 51°19.003 2°39.777 11.3209 3.853744 34.046346 25.343537
2006-05-10 07:47:32 51°19.014 2°39.746 11.325 3.854482 34.052142 25.377247
2006-05-10 07:47:36 51°19.02 2°39.725 11.3297 3.854903 34.051887 25.343537
2006-05-10 07:47:42 51°19.03 2°39.695 11.3268 3.854903 34.051887 25.343537
2006-05-10 07:47:47 51°19.039 2°39.669 11.3273 3.855325 34.050899 25.343537
2006-05-10 07:47:52 51°19.047 2°39.644 11.3286 3.856168 34.056263 25.343537
2006-05-10 07:47:56 51°19.054 2°39.623 11.3322 3.857011 34.063094 25.343537
2006-05-10 07:48:02 51°19.064 2°39.593 11.3363 3.857327 34.066941 25.343537
2006-05-10 07:48:07 51°19.072 2°39.567 11.343 3.857643 34.06785 25.343537
2006-05-10 07:48:12 51°19.08 2°39.542 11.3419 3.857643 34.06785 25.343537
2006-05-10 07:48:17 51°19.089 2°39.516 11.3445 3.858275 34.071137 25.309828
2006-05-10 07:48:22 51°19.097 2°39.491 11.3528 3.858591 34.072047 25.309828
2006-05-10 07:48:26 51°19.104 2°39.471 11.3481 3.859223 34.077536 25.276118
2006-05-10 07:48:30 51°19.11 2°39.45 11.3549 3.859645 34.079483 25.276118
2006-05-10 07:48:37 51°19.122 2°39.414 11.3485 3.859856 34.077886 25.242409
2006-05-10 07:48:42 51°19.13 2°39.388 11.3503 3.859856 34.077886 25.242409
2006-05-10 07:48:46 51°19.137 2°39.368 11.3503 3.860593 34.080006 25.242409
2006-05-10 07:48:52 51°19.146 2°39.337 11.3516 3.861331 34.085063 25.276118
2006-05-10 07:48:57 51°19.154 2°39.311 11.3456 3.861647 34.083769 25.242409
2006-05-10 07:49:02 51°19.162 2°39.285 11.3435 3.862384 34.088825 25.242409
2006-05-10 07:49:06 51°19.169 2°39.265 11.3463 3.86249 34.088394 25.2087
2006-05-10 07:49:12 51°19.178 2°39.234 11.3496 3.86249 34.088394 25.2087
2006-05-10 07:49:17 51°19.187 2°39.208 11.3495 3.862806 34.091504 25.242409
2006-05-10 07:49:22 51°19.194 2°39.183 11.348 3.862595 34.088697 25.2087
2006-05-10 07:49:26 51°19.201 2°39.162 11.3471 3.862595 34.089431 25.2087
2006-05-10 07:49:32 51°19.211 2°39.131 11.347 3.862595 34.090165 25.17499
2006-05-10 07:49:37 51°19.219 2°39.106 11.3463 3.86249 34.090596 25.2087
2006-05-10 07:49:42 51°19.228 2°39.08 11.3381 3.86249 34.090596 25.2087
2006-05-10 07:49:46 51°19.235 2°39.06 11.325 3.862701 34.091202 25.17499
2006-05-10 07:49:52 51°19.245 2°39.03 11.3086 3.86249 34.089128 25.17499
2006-05-10 07:49:57 51°19.253 2°39.004 11.2963 3.862595 34.089431 25.141281
2006-05-10 07:50:02 51°19.261 2°38.978 11.2858 3.862595 34.090899 25.141281
2006-05-10 07:50:07 51°19.269 2°38.952 11.2706 3.86249 34.090596 25.141281
2006-05-10 07:50:12 51°19.277 2°38.926 11.2655 3.86249 34.090596 25.141281
2006-05-10 07:50:17 51°19.284 2°38.9 11.2652 3.862174 34.089688 25.141281
2006-05-10 07:50:22 51°19.293 2°38.874 11.2627 3.861542 34.090074 25.107571
2006-05-10 07:50:25 51°19.297 2°38.859 11.2604 3.860804 34.093831 25.141281
2006-05-10 07:50:32 51°19.309 2°38.822 11.2522 3.859434 34.091365 25.107571
2006-05-10 07:50:36 51°19.315 2°38.801 11.2491 3.858381 34.095689 25.107571
2006-05-10 07:50:42 51°19.325 2°38.769 11.2452 3.858381 34.095689 25.107571
2006-05-10 07:50:46 51°19.331 2°38.748 11.2417 3.856906 34.092185 25.107571
2006-05-10 07:50:52 51°19.341 2°38.717 11.2424 3.855641 34.08708 25.141281
2006-05-10 07:50:56 51°19.348 2°38.697 11.2372 3.855115 34.089244 25.073862
2006-05-10 07:51:02 51°19.358 2°38.665 11.2378 3.854377 34.085652 25.073862
2006-05-10 07:51:06 51°19.364 2°38.644 11.236 3.853956 34.086647 25.073862
2006-05-10 07:51:12 51°19.374 2°38.613 11.2378 3.853956 34.086647 25.073862
2006-05-10 07:51:16 51°19.38 2°38.592 11.2427 3.853218 34.083054 25.040153
2006-05-10 07:51:22 51°19.39 2°38.56 11.2459 3.852902 34.08509 25.006443
2006-05-10 07:51:27 51°19.398 2°38.533 11.2397 3.852375 34.082102 25.006443
2006-05-10 07:51:32 51°19.406 2°38.507 11.2404 3.852059 34.082665 25.040153
2006-05-10 07:51:36 51°19.412 2°38.487 11.2426 3.851848 34.082795 25.006443
2006-05-10 07:51:42 51°19.422 2°38.455 11.2394 3.851848 34.082795 25.006443
2006-05-10 07:51:47 51°19.43 2°38.428 11.2415 3.851743 34.082492 24.972734
2006-05-10 07:51:52 51°19.437 2°38.402 11.2394 3.851848 34.082059 24.972734
2006-05-10 07:51:57 51°19.444 2°38.374 11.2453 3.851848 34.07985 24.972734
2006-05-10 07:52:02 51°19.45 2°38.347 11.2492 3.851848 34.07985 24.905315
2006-05-10 07:52:06 51°19.456 2°38.325 11.25 3.852059 34.081193 24.905315
2006-05-10 07:52:10 51°19.461 2°38.304 11.2521 3.852059 34.081193 24.905315
2006-05-10 07:52:17 51°19.47 2°38.267 11.2501 3.852059 34.081929 24.905315
2006-05-10 07:52:22 51°19.477 2°38.24 11.2509 3.85227 34.084008 24.837896
2006-05-10 07:52:26 51°19.482 2°38.218 11.2532 3.852375 34.085047 24.871606
2006-05-10 07:52:32 51°19.49 2°38.186 11.2547 3.852691 34.086692 24.837896
2006-05-10 07:52:36 51°19.496 2°38.164 11.2603 3.853113 34.088641 24.804187
2006-05-10 07:52:42 51°19.505 2°38.133 11.2474 3.853113 34.088641 24.804187
2006-05-10 07:52:46 51°19.51 2°38.112 11.256 3.853534 34.090589 24.837896
2006-05-10 07:52:52 51°19.519 2°38.079 11.2436 3.854061 34.095785 24.804187
2006-05-10 07:52:56 51°19.524 2°38.058 11.2423 3.854693 34.101284 24.804187
2006-05-10 07:53:02 51°19.532 2°38.026 11.2378 3.855431 34.107822 24.770477
2006-05-10 07:53:06 51°19.538 2°38.005 11.2295 3.856485 34.115267 24.770477
2006-05-10 07:53:12 51°19.546 2°37.973 11.227 3.856485 34.115267 24.770477
2006-05-10 07:53:16 51°19.552 2°37.951 11.2265 3.857854 34.128777 24.770477
2006-05-10 07:53:22 51°19.559 2°37.919 11.2299 3.858803 34.138868 24.770477
2006-05-10 07:53:26 51°19.565 2°37.898 11.2204 3.859962 34.152513 24.703059
2006-05-10 07:53:32 51°19.573 2°37.865 11.2178 3.860489 34.160662 24.703059
2006-05-10 07:53:36 51°19.578 2°37.843 11.216 3.860805 34.170423 24.736768
2006-05-10 07:53:42 51°19.586 2°37.812 11.2101 3.860805 34.170423 24.736768
2006-05-10 07:53:47 51°19.593 2°37.785 11.2077 3.861437 34.181831 24.703059
2006-05-10 07:53:52 51°19.599 2°37.758 11.2109 3.861543 34.187304 24.703059
2006-05-10 07:53:56 51°19.604 2°37.736 11.2029 3.86207 34.193243 24.669349
2006-05-10 07:54:02 51°19.612 2°37.705 11.1985 3.862281 34.197541 24.669349
2006-05-10 07:54:07 51°19.619 2°37.678 11.1998 3.862807 34.20496 24.669349
2006-05-10 07:54:12 51°19.626 2°37.651 11.1951 3.862807 34.20496 24.669349
2006-05-10 07:54:17 51°19.632 2°37.625 11.1973 3.862807 34.209397 24.669349
2006-05-10 07:54:22 51°19.639 2°37.598 11.1916 3.863229 34.217997 24.669349
2006-05-10 07:54:26 51°19.644 2°37.577 11.1924 3.863229 34.220217 24.63564
2006-05-10 07:54:30 51°19.65 2°37.556 11.1864 3.863545 34.226299 24.669349
2006-05-10 07:54:37 51°19.66 2°37.519 11.1862 3.863756 34.232083 24.63564
2006-05-10 07:54:42 51°19.666 2°37.492 11.1824 3.863756 34.232083 24.63564
2006-05-10 07:54:46 51°19.672 2°37.471 11.1746 3.863756 34.234304 24.60193
2006-05-10 07:54:52 51°19.68 2°37.439 11.1776 3.863967 34.238608 24.60193
2006-05-10 07:54:57 51°19.687 2°37.413 11.1711 3.864283 34.243953 24.60193
2006-05-10 07:55:02 51°19.694 2°37.386 11.1648 3.864072 34.243352 24.60193
2006-05-10 07:55:06 51°19.699 2°37.364 11.1626 3.864283 34.249139 24.60193
2006-05-10 07:55:12 51°19.707 2°37.332 11.1645 3.864283 34.249139 24.60193
2006-05-10 07:55:17 51°19.714 2°37.306 11.1593 3.864283 34.252104 24.534512
2006-05-10 07:55:22 51°19.721 2°37.28 11.1638 3.864494 34.257893 24.534512
2006-05-10 07:55:26 51°19.726 2°37.258 11.1609 3.864283 34.258034 24.534512
2006-05-10 07:55:32 51°19.734 2°37.226 11.1626 3.864389 34.263525 24.534512
2006-05-10 07:55:37 51°19.741 2°37.2 11.1553 3.864599 34.270802 24.534512
2006-05-10 07:55:42 51°19.748 2°37.174 11.1498 3.864599 34.270802 24.534512
2006-05-10 07:55:46 51°19.754 2°37.153 11.1598 3.864599 34.273028 24.534512
2006-05-10 07:55:52 51°19.762 2°37.12 11.1542 3.864389 34.27317 24.500802
2006-05-10 07:55:57 51°19.768 2°37.094 11.152 3.864389 34.272428 24.467093
2006-05-10 07:56:02 51°19.775 2°37.068 11.1479 3.864494 34.275697 24.467093
2006-05-10 07:56:07 51°19.782 2°37.041 11.149 3.864389 34.276881 24.467093
2006-05-10 07:56:11 51°19.787 2°37.02 11.1448 3.864389 34.276881 24.467093
2006-05-10 07:56:17 51°19.796 2°36.99 11.1471 3.864705 34.28372 24.433383
2006-05-10 07:56:22 51°19.803 2°36.963 11.1417 3.86481 34.28402 24.467093
2006-05-10 07:56:26 51°19.809 2°36.942 11.1413 3.86481 34.28699 24.433383
2006-05-10 07:56:32 51°19.818 2°36.911 11.1359 3.864705 34.287433 24.433383
2006-05-10 07:56:37 51°19.825 2°36.885 11.1348 3.864705 34.289662 24.433383
2006-05-10 07:56:41 51°19.83 2°36.863 11.1322 3.864705 34.289662 24.433383
2006-05-10 07:56:47 51°19.839 2°36.831 11.1272 3.86481 34.29219 24.399674
2006-05-10 07:56:52 51°19.845 2°36.806 11.1306 3.864916 34.294718 24.399674
2006-05-10 07:56:56 51°19.85 2°36.784 11.123 3.864811 34.297391 24.399674
2006-05-10 07:57:02 51°19.858 2°36.753 11.1261 3.864811 34.298877 24.365965
2006-05-10 07:57:07 51°19.865 2°36.726 11.1172 3.864811 34.301107 24.332255
2006-05-10 07:57:12 51°19.871 2°36.7 11.1187 3.864811 34.301107 24.332255
2006-05-10 07:57:17 51°19.878 2°36.674 11.119 3.865127 34.305722 24.332255
2006-05-10 07:57:21 51°19.884 2°36.652 11.1191 3.865232 34.310483 24.298546
2006-05-10 07:57:27 51°19.892 2°36.621 11.1184 3.865127 34.311671 24.332255
2006-05-10 07:57:32 51°19.899 2°36.595 11.1161 3.865338 34.317477 24.298546
2006-05-10 07:57:36 51°19.905 2°36.574 11.1136 3.865548 34.321795 24.264836
2006-05-10 07:57:40 51°19.91 2°36.553 11.1178 3.865548 34.321795 24.264836
2006-05-10 07:57:46 51°19.919 2°36.521 11.112 3.865759 34.32537 24.231127
2006-05-10 07:57:52 51°19.927 2°36.49 11.1182 3.865865 34.328646 24.264836
2006-05-10 07:57:56 51°19.932 2°36.469 11.1062 3.866075 34.330733 24.231127
2006-05-10 07:58:02 51°19.941 2°36.437 11.1071 3.866286 34.334308 24.264836
2006-05-10 07:58:06 51°19.947 2°36.416 11.1083 3.866181 34.334754 24.231127
2006-05-10 07:58:12 51°19.954 2°36.384 11.1117 3.866181 34.334754 24.231127
2006-05-10 07:58:16 51°19.96 2°36.363 11.1037 3.866602 34.338928 24.197418
2006-05-10 07:58:22 51°19.968 2°36.331 11.1046 3.866708 34.342206 24.197418
2006-05-10 07:58:26 51°19.974 2°36.311 11.1023 3.866708 34.343695 24.163708
2006-05-10 07:58:32 51°19.982 2°36.279 11.1058 3.866708 34.346675 24.197418
2006-05-10 07:58:36 51°19.988 2°36.258 11.1051 3.866813 34.348464 24.163708
2006-05-10 07:58:42 51°19.996 2°36.226 11.0947 3.866813 34.348464 24.163708
2006-05-10 07:58:46 51°20.001 2°36.206 11.092 3.866813 34.349209 24.163708
2006-05-10 07:58:52 51°20.009 2°36.174 11.0932 3.867024 34.352041 24.129999
2006-05-10 07:58:56 51°20.015 2°36.153 11.0953 3.866708 34.349655 24.163708
2006-05-10 07:59:02 51°20.023 2°36.121 11.094 3.866602 34.350102 24.163708
2006-05-10 07:59:06 51°20.029 2°36.1 11.0901 3.866497 34.350548 24.163708
2006-05-10 07:59:12 51°20.037 2°36.069 11.0888 3.866497 34.350548 24.163708
2006-05-10 07:59:16 51°20.043 2°36.047 11.0866 3.866602 34.355319 24.129999
2006-05-10 07:59:21 51°20.05 2°36.021 11.0844 3.866286 34.354423 24.096289
2006-05-10 07:59:27 51°20.059 2°35.989 11.0851 3.866286 34.355914 24.096289
2006-05-10 07:59:32 51°20.065 2°35.963 11.0873 3.866392 34.356958 24.096289
2006-05-10 07:59:37 51°20.072 2°35.936 11.0844 3.866392 34.35994 24.028871
2006-05-10 07:59:41 51°20.078 2°35.915 11.0829 3.866392 34.35994 24.028871
2006-05-10 07:59:47 51°20.086 2°35.883 11.0817 3.866076 34.358299 24.028871
2006-05-10 07:59:52 51°20.093 2°35.857 11.085 3.866076 34.360536 24.028871
2006-05-10 07:59:56 51°20.098 2°35.836 11.086 3.86597 34.361729 23.995161
2006-05-10 08:00:02 51°20.106 2°35.804 11.0813 3.866076 34.362028 23.995161
2006-05-10 08:00:06 51°20.112 2°35.783 11.0826 3.86597 34.361729 23.995161
2006-05-10 08:00:12 51°20.12 2°35.751 11.0836 3.86597 34.361729 23.995161
2006-05-10 08:00:16 51°20.126 2°35.73 11.0797 3.866076 34.364265 23.995161
2006-05-10 08:00:21 51°20.133 2°35.704 11.0884 3.866392 34.366653 23.927742
2006-05-10 08:00:27 51°20.141 2°35.673 11.0829 3.866287 34.365608 23.927742
2006-05-10 08:00:32 51°20.148 2°35.646 11.0832 3.866392 34.368145 23.927742
2006-05-10 08:00:37 51°20.155 2°35.62 11.0815 3.866181 34.366802 23.894033
2006-05-10 08:00:41 51°20.161 2°35.599 11.0746 3.866181 34.366802 23.894033
2006-05-10 08:00:47 51°20.169 2°35.566 11.0756 3.866181 34.367548 23.860324
2006-05-10 08:00:52 51°20.176 2°35.541 11.077 3.866392 34.369637 23.894033
2006-05-10 08:00:56 51°20.181 2°35.52 11.0734 3.866392 34.368891 23.826614
2006-05-10 08:01:00 51°20.187 2°35.499 11.0738 3.866497 34.370681 23.860324
2006-05-10 08:01:06 51°20.196 2°35.467 11.0734 3.866497 34.369935 23.792905
2006-05-10 08:01:12 51°20.205 2°35.436 11.0689 3.866497 34.369935 23.792905
2006-05-10 08:01:16 51°20.21 2°35.415 11.0739 3.866603 34.372472 23.826614
2006-05-10 08:01:22 51°20.219 2°35.384 11.0678 3.866497 34.374413 23.826614
2006-05-10 08:01:26 51°20.223 2°35.363 11.0796 3.866392 34.373368 23.792905
2006-05-10 08:01:32 51°20.232 2°35.33 11.072 3.866181 34.372771 23.759195
2006-05-10 08:01:36 51°20.238 2°35.309 11.0743 3.866603 34.378443 23.792905
2006-05-10 08:01:42 51°20.246 2°35.277 11.0751 3.866603 34.378443 23.792905
2006-05-10 08:01:46 51°20.252 2°35.256 11.081 3.866814 34.382025 23.759195
2006-05-10 08:01:52 51°20.261 2°35.224 11.0739 3.866603 34.380682 23.691777
2006-05-10 08:01:56 51°20.266 2°35.202 11.074 3.866603 34.382922 23.759195
2006-05-10 08:02:02 51°20.275 2°35.171 11.0728 3.866708 34.380981 23.658067
2006-05-10 08:02:06 51°20.281 2°35.149 11.0766 3.866603 34.380682 23.691777
2006-05-10 08:02:12 51°20.289 2°35.117 11.0671 3.866603 34.380682 23.691777
2006-05-10 08:02:17 51°20.297 2°35.091 11.07 3.866392 34.377846 23.658067
2006-05-10 08:02:22 51°20.304 2°35.064 11.0694 3.866497 34.377398 23.624358
2006-05-10 08:02:25 51°20.309 2°35.047 11.076 3.866919 34.38083 23.624358
2006-05-10 08:02:32 51°20.318 2°35.01 11.0727 3.866708 34.380234 23.590648
2006-05-10 08:02:36 51°20.324 2°34.989 11.0685 3.866814 34.382772 23.590648
2006-05-10 08:02:42 51°20.332 2°34.957 11.0699 3.866814 34.382772 23.590648
2006-05-10 08:02:46 51°20.338 2°34.935 11.0651 3.866708 34.381727 23.624358
2006-05-10 08:02:52 51°20.347 2°34.903 11.0672 3.866497 34.381877 23.556939
2006-05-10 08:02:56 51°20.353 2°34.881 11.0706 3.866497 34.382624 23.556939
2006-05-10 08:03:02 51°20.362 2°34.85 11.0688 3.866497 34.381131 23.52323
2006-05-10 08:03:06 51°20.369 2°34.829 11.0748 3.866497 34.381131 23.52323
2006-05-10 08:03:12 51°20.38 2°34.799 11.0717 3.866497 34.381131 23.52323
2006-05-10 08:03:17 51°20.389 2°34.775 11.0701 3.866603 34.384416 23.52323
2006-05-10 08:03:22 51°20.399 2°34.75 11.0699 3.866603 34.385909 23.455811
2006-05-10 08:03:25 51°20.406 2°34.736 11.0622 3.866603 34.385909 23.455811
2006-05-10 08:03:32 51°20.418 2°34.701 11.0659 3.866392 34.382326 23.455811
2006-05-10 08:03:36 51°20.427 2°34.682 11.066 3.866603 34.384416 23.422101
2006-05-10 08:03:42 51°20.439 2°34.653 11.0697 3.866603 34.384416 23.422101
2006-05-10 08:03:46 51°20.447 2°34.633 11.0662 3.866708 34.384714 23.422101
2006-05-10 08:03:52 51°20.459 2°34.605 11.0661 3.866814 34.385759 23.354683
2006-05-10 08:03:56 51°20.467 2°34.586 11.0649 3.866814 34.387252 23.354683
2006-05-10 08:04:02 51°20.479 2°34.556 11.0693 3.866814 34.388746 23.388392
2006-05-10 08:04:06 51°20.486 2°34.536 11.0829 3.866603 34.388897 23.354683
2006-05-10 08:04:12 51°20.498 2°34.507 11.0793 3.866603 34.388897 23.354683
2006-05-10 08:04:17 51°20.508 2°34.482 11.0829 3.866498 34.387852 23.388392
2006-05-10 08:04:22 51°20.517 2°34.457 11.0825 3.866181 34.38397 23.320973
2006-05-10 08:04:25 51°20.523 2°34.442 11.0815 3.866181 34.384717 23.354683
2006-05-10 08:04:32 51°20.537 2°34.408 11.0828 3.865971 34.382627 23.287264
2006-05-10 08:04:36 51°20.545 2°34.389 11.0858 3.865865 34.377102 23.253554
2006-05-10 08:04:42 51°20.557 2°34.36 11.0806 3.865865 34.377102 23.253554
2006-05-10 08:04:46 51°20.566 2°34.342 11.0877 3.866287 34.376055 23.253554
2006-05-10 08:04:52 51°20.58 2°34.314 11.0821 3.866392 34.373368 23.186136
2006-05-10 08:04:57 51°20.592 2°34.293 11.0724 3.866497 34.37292 23.186136
2006-05-10 08:05:02 51°20.604 2°34.271 11.067 3.866497 34.373666 23.186136
2006-05-10 08:05:05 51°20.611 2°34.258 11.0703 3.866603 34.372472 23.186136
2006-05-10 08:05:12 51°20.628 2°34.229 11.0693 3.866603 34.372472 23.186136
2006-05-10 08:05:16 51°20.638 2°34.212 11.0693 3.866919 34.374859 23.186136
2006-05-10 08:05:22 51°20.653 2°34.186 11.0644 3.867024 34.374411 23.152426
2006-05-10 08:05:26 51°20.662 2°34.169 11.0627 3.867024 34.375158 23.152426
2006-05-10 08:05:32 51°20.678 2°34.144 11.0605 3.86713 34.38068 23.085007
2006-05-10 08:05:36 51°20.687 2°34.127 11.0577 3.866708 34.382474 23.186136
2006-05-10 08:05:42 51°20.703 2°34.102 11.0636 3.866708 34.382474 23.186136
2006-05-10 08:05:46 51°20.712 2°34.084 11.068 3.866497 34.381877 23.152426
2006-05-10 08:05:52 51°20.727 2°34.059 11.073 3.866076 34.379191 23.118717
2006-05-10 08:05:57 51°20.739 2°34.037 11.0787 3.866076 34.382178 23.118717
2006-05-10 08:06:02 51°20.751 2°34.017 11.0853 3.86576 34.380537 23.118717
2006-05-10 08:06:05 51°20.759 2°34.003 11.0866 3.865444 34.380389 23.085007
2006-05-10 08:06:12 51°20.776 2°33.973 11.1002 3.865444 34.380389 23.085007
2006-05-10 08:06:16 51°20.786 2°33.957 11.1109 3.864917 34.37591 23.051298
2006-05-10 08:06:22 51°20.801 2°33.931 11.1249 3.86439 34.368445 23.051298
2006-05-10 08:06:26 51°20.811 2°33.915 11.1325 3.864074 34.361578 23.017589
2006-05-10 08:06:32 51°20.826 2°33.889 11.1352 3.863863 34.355012 22.983879
2006-05-10 08:06:36 51°20.837 2°33.872 11.1414 3.863547 34.346657 23.017589
2006-05-10 08:06:42 51°20.851 2°33.847 11.1511 3.863547 34.346657 23.017589
2006-05-10 08:06:46 51°20.861 2°33.829 11.1584 3.86302 34.33398 22.983879
2006-05-10 08:06:52 51°20.876 2°33.805 11.166 3.863336 34.328171 22.983879
2006-05-10 08:06:57 51°20.889 2°33.784 11.1657 3.86323 34.317446 22.983879
2006-05-10 08:07:02 51°20.901 2°33.762 11.1656 3.863441 34.308369 22.95017
2006-05-10 08:07:05 51°20.909 2°33.75 11.1669 3.863757 34.304804 22.95017
2006-05-10 08:07:12 51°20.927 2°33.72 11.1683 3.863757 34.304804 22.95017
2006-05-10 08:07:16 51°20.937 2°33.704 11.1736 3.863862 34.296182 22.95017
2006-05-10 08:07:22 51°20.952 2°33.678 11.1773 3.864284 34.294407 22.95017
2006-05-10 08:07:26 51°20.962 2°33.661 11.1779 3.864705 34.290404 22.91646
2006-05-10 08:07:32 51°20.977 2°33.635 11.18 3.865021 34.288332 22.91646